Data for 06/09/2009

Time Sea-Level Adjusted Pressure Absolute Pressure Temperature Relative Humidity Dew Point Precipitation   
(mb) (inHg) (mb) (inHg) (C) (F) (%) (C) (F) (mm) (in)
00:01 1016 30 846 24.98 4.5 40.2 90 3 37.4 4.913 0.193
00:02 1016 30 846 24.98 4.5 40.1 90 3 37.5 4.913 0.193
00:03 1016 30 846 24.98 4.5 40 91 3 37.5 4.874 0.192
00:04 1016 30 846 24.98 4.5 40 91 3.1 37.6 4.862 0.191
00:05 1016 30 846 24.98 4.5 40.1 91 3.1 37.6 4.891 0.193
00:06 1016 30 846 24.98 4.5 40.1 91 3.2 37.7 4.93 0.194
00:07 1016 30 846 24.98 4.6 40.2 91 3.2 37.7 4.953 0.195
00:08 1016 30 846 24.98 4.6 40.3 91 3.2 37.8 5.015 0.197
00:09 1016 30 846 24.98 4.7 40.5 90 3.3 37.9 5.078 0.2
00:10 1016 30 846 24.98 4.7 40.5 90 3.2 37.8 5.089 0.2
00:11 1016 30 846 24.98 4.8 40.6 90 3.3 37.9 5.106 0.201
00:12 1016 30 846 24.98 4.8 40.6 90 3.3 37.9 5.146 0.203
00:13 1016 30 846 24.98 4.8 40.6 89 3.2 37.8 5.14 0.202
00:14 1016 30 846 24.98 4.8 40.7 89 3.2 37.7 5.168 0.203
00:15 1016 30 846 24.98 4.9 40.8 89 3.3 37.9 5.236 0.206
00:16 1016 30 846 24.98 4.9 40.8 89 3.2 37.7 5.208 0.205
00:17 1016 30 846 24.98 4.9 40.8 89 3.2 37.7 5.236 0.206
00:18 1016 30 846 24.98 4.9 40.8 89 3.2 37.8 5.259 0.207
00:19 1016 30 846 24.98 4.9 40.8 89 3.2 37.8 5.253 0.207
00:20 1016 30 846 24.98 4.9 40.8 89 3.2 37.8 5.27 0.207
00:21 1016 30 846 24.98 4.9 40.8 89 3.2 37.8 5.282 0.208
00:22 1016 30 846 24.98 4.9 40.8 89 3.2 37.8 5.287 0.208
00:23 1016 30 846 24.98 4.9 40.8 89 3.2 37.7 5.248 0.207
00:24 1016 30 846 24.98 4.9 40.8 89 3.2 37.8 5.27 0.207
00:25 1016 30 846 24.98 4.9 40.9 89 3.2 37.7 5.304 0.209
00:26 1016 30 846 24.98 4.9 40.9 89 3.2 37.8 5.299 0.209
00:27 1016 30 846 24.98 5 40.9 89 3.2 37.8 5.327 0.21
00:28 1017 30.03 846 24.98 4.9 40.8 89 3.2 37.8 5.304 0.209
00:29 1017 30.03 846 24.98 4.9 40.8 89 3.3 37.9 5.253 0.207
00:30 1017 30.03 846 24.98 4.9 40.8 89 3.2 37.8 5.236 0.206
00:31 1017 30.03 846 24.98 4.8 40.7 89 3.2 37.8 5.214 0.205
00:32 1017 30.03 846 24.98 4.7 40.5 89 3 37.5 5.118 0.201
00:33 1017 30.03 846 24.98 4.6 40.4 89 3.1 37.5 5.089 0.2
00:34 1016 30 846 24.98 4.5 40.2 90 3 37.3 4.954 0.195
00:35 1016 30 846 24.98 4.5 40.1 90 3 37.4 4.914 0.193
00:36 1017 30.03 846 24.98 4.4 39.9 91 3 37.4 4.84 0.191
00:37 1017 30.03 846 24.98 4.3 39.8 91 3 37.4 4.801 0.189
00:38 1017 30.03 846 24.98 4.2 39.6 91 3 37.3 4.744 0.187
00:39 1017 30.03 846 24.98 4.2 39.6 92 3 37.4 4.654 0.183
00:40 1017 30.03 846 24.98 4.2 39.6 92 3 37.4 4.62 0.182
00:41 1017 30.03 846 24.98 4.2 39.5 92 3 37.5 4.62 0.182
00:42 1017 30.03 846 24.98 4.2 39.5 93 3.1 37.6 4.608 0.181
00:43 1017 30.03 846 24.98 4.2 39.6 93 3.1 37.6 4.637 0.183
00:44 1017 30.03 846 24.98 4.2 39.6 93 3.1 37.7 4.688 0.185
00:45 1017 30.03 846 24.98 4.3 39.7 93 3.2 37.8 4.722 0.186
00:46 1017 30.03 846 24.98 4.3 39.7 93 3.2 37.7 4.756 0.187
00:47 1017 30.03 846 24.98 4.3 39.8 93 3.3 37.9 4.744 0.187
00:48 1017 30.03 846 24.98 4.3 39.8 93 3.2 37.8 4.767 0.188
00:49 1017 30.03 846 24.98 4.3 39.7 92 3.2 37.7 4.761 0.187
00:50 1017 30.03 846 24.98 4.3 39.8 92 3.2 37.7 4.75 0.187
00:51 1017 30.03 846 24.98 4.4 39.8 93 3.3 37.9 4.727 0.186
00:52 1017 30.03 846 24.98 4.3 39.8 93 3.2 37.8 4.767 0.188
00:53 1017 30.03 846 24.98 4.3 39.8 93 3.3 37.9 4.773 0.188
00:54 1017 30.03 846 24.98 4.3 39.8 93 3.3 37.9 4.756 0.187
00:55 1017 30.03 846 24.98 4.3 39.8 93 3.3 37.9 4.795 0.189
00:56 1017 30.03 846 24.98 4.4 39.9 93 3.3 38 4.778 0.188
00:57 1017 30.03 846 24.98 4.4 39.9 93 3.3 38 4.818 0.19
00:58 1017 30.03 846 24.98 4.4 40 93 3.4 38.1 4.84 0.191
00:59 1017 30.03 846 24.98 4.4 40 93 3.4 38.1 4.84 0.191
01:00 1017 30.03 846 24.98 4.5 40 93 3.5 38.2 4.88 0.192
01:01 1017 30.03 846 24.98 4.5 40.1 93 3.5 38.2 4.891 0.193
01:02 1017 30.03 846 24.98 4.5 40.1 93 3.5 38.3 4.908 0.193
01:03 1017 30.03 846 24.98 4.5 40.1 93 3.4 38.2 4.925 0.194
01:04 1017 30.03 846 24.98 4.5 40.1 92 3.4 38.1 4.886 0.192
01:05 1017 30.03 846 24.98 4.5 40.1 92 3.4 38.1 4.903 0.193
01:06 1017 30.03 846 24.98 4.5 40.2 92 3.4 38.1 4.948 0.195
01:07 1017 30.03 846 24.98 4.6 40.2 92 3.3 38 4.931 0.194
01:08 1017 30.03 846 24.98 4.5 40.2 92 3.4 38 4.897 0.193
01:09 1017 30.03 846 24.98 4.5 40.2 92 3.4 38.1 4.908 0.193
01:10 1017 30.03 846 24.98 4.5 40.1 92 3.3 38 4.908 0.193
01:11 1017 30.03 846 24.98 4.6 40.2 92 3.4 38.1 4.88 0.192
01:12 1017 30.03 846 24.98 4.6 40.2 92 3.3 38 4.942 0.195
01:13 1017 30.03 846 24.98 4.5 40.1 91 3.2 37.7 4.908 0.193
01:14 1017 30.03 846 24.98 4.5 40.2 92 3.3 37.9 4.925 0.194
01:15 1017 30.03 846 24.98 4.6 40.2 92 3.3 37.9 4.92 0.194
01:16 1017 30.03 846 24.98 4.6 40.2 92 3.3 38 4.914 0.193
01:17 1017 30.03 846 24.98 4.6 40.2 92 3.3 38 4.903 0.193
01:18 1017 30.03 846 24.98 4.6 40.2 92 3.3 38 4.863 0.191
01:19 1017 30.03 846 24.98 4.6 40.2 92 3.3 38 4.931 0.194
01:20 1017 30.03 846 24.98 4.6 40.2 92 3.3 37.9 4.92 0.194
01:21 1017 30.03 846 24.98 4.6 40.2 92 3.3 38 4.897 0.193
01:22 1017 30.03 846 24.98 4.5 40.2 92 3.3 37.9 4.925 0.194
01:23 1017 30.03 846 24.98 4.6 40.2 92 3.3 37.9 4.931 0.194
01:24 1017 30.03 846 24.98 4.5 40.2 91 3.3 37.9 4.914 0.193
01:25 1017 30.03 846 24.98 4.6 40.2 92 3.3 37.9 4.886 0.192
01:26 1017 30.03 846 24.98 4.5 40.2 92 3.3 37.9 4.869 0.192
01:27 1017 30.03 846 24.98 4.5 40.1 92 3.3 37.9 4.908 0.193
01:28 1017 30.03 846 24.98 4.5 40.2 92 3.3 37.9 4.846 0.191
01:29 1017 30.03 846 24.98 4.5 40.1 92 3.4 38 4.835 0.19
01:30 1017 30.03 846 24.98 4.5 40.1 92 3.4 38.1 4.857 0.191
01:31 1017 30.03 846 24.98 4.5 40.1 92 3.4 38 4.852 0.191
01:32 1017 30.03 846 24.98 4.5 40.1 92 3.4 38.1 4.84 0.191
01:33 1017 30.03 846 24.98 4.5 40.1 93 3.4 38.1 4.886 0.192
01:34 1017 30.03 846 24.98 4.5 40 93 3.4 38.1 4.863 0.191
01:35 1017 30.03 846 24.98 4.5 40 93 3.4 38.2 4.863 0.191
01:36 1017 30.03 846 24.98 4.5 40 93 3.4 38.1 4.891 0.193
01:37 1017 30.03 846 24.98 4.5 40 92 3.3 38 4.829 0.19
01:38 1017 30.03 846 24.98 4.4 40 92 3.3 38 4.784 0.188
01:39 1017 30.03 846 24.98 4.4 39.9 92 3.2 37.8 4.744 0.187
01:40 1017 30.03 846 24.98 4.4 39.9 92 3.3 37.9 4.722 0.186
01:41 1017 30.03 846 24.98 4.4 39.8 93 3.3 37.9 4.716 0.186
01:42 1017 30.03 846 24.98 4.3 39.7 92 3.2 37.7 4.693 0.185
01:43 1017 30.03 846 24.98 4.3 39.7 93 3.2 37.8 4.665 0.184
01:44 1017 30.03 846 24.98 4.3 39.7 92 3.2 37.7 4.659 0.183
01:45 1017 30.03 846 24.98 4.2 39.6 93 3.2 37.7 4.654 0.183
01:46 1017 30.03 846 24.98 4.2 39.6 93 3.2 37.7 4.625 0.182
01:47 1017 30.03 846 24.98 4.2 39.6 93 3.2 37.7 4.625 0.182
01:48 1017 30.03 846 24.98 4.2 39.6 93 3.2 37.7 4.614 0.182
01:49 1017 30.03 846 24.98 4.2 39.6 93 3.1 37.6 4.608 0.181
01:50 1017 30.03 846 24.98 4.2 39.5 93 3.1 37.6 4.586 0.181
01:51 1017 30.03 846 24.98 4.2 39.5 93 3.1 37.5 4.552 0.179
01:52 1017 30.03 846 24.98 4.2 39.5 93 3.2 37.7 4.563 0.18
01:53 1017 30.03 846 24.98 4.2 39.5 93 3.1 37.6 4.546 0.179
01:54 1017 30.03 846 24.98 4.1 39.4 93 3.1 37.6 4.541 0.179
01:55 1017 30.03 846 24.98 4.1 39.4 94 3.2 37.7 4.512 0.178
01:56 1017 30.03 846 24.98 4.1 39.4 93 3.1 37.6 4.563 0.18
01:57 1017 30.03 846 24.98 4.1 39.4 93 3.1 37.7 4.495 0.177
01:58 1017 30.03 846 24.98 4.1 39.4 94 3.1 37.7 4.507 0.177
01:59 1017 30.03 846 24.98 4.1 39.4 93 3.1 37.6 4.501 0.177
02:00 1017 30.03 846 24.98 4.1 39.4 94 3.2 37.7 4.484 0.177
02:01 1017 30.03 846 24.98 4.1 39.4 94 3.3 37.9 4.484 0.177
02:02 1017 30.03 846 24.98 4.1 39.4 94 3.2 37.8 4.456 0.175
02:03 1017 30.03 846 24.98 4.1 39.4 94 3.2 37.7 4.467 0.176
02:04 1017 30.03 846 24.98 4.1 39.3 94 3.1 37.6 4.439 0.175
02:05 1017 30.03 846 24.98 4 39.3 94 3.1 37.5 4.388 0.173
02:06 1017 30.03 846 24.98 4 39.2 93 3 37.5 4.399 0.173
02:07 1017 30.03 846 24.98 4 39.2 93 3 37.5 4.337 0.171
02:08 1017 30.03 846 24.98 4 39.2 94 3.1 37.5 4.382 0.173
02:09 1017 30.03 846 24.98 4 39.1 93 3 37.4 4.354 0.171
02:10 1017 30.03 846 24.98 4 39.2 94 3 37.5 4.354 0.171
02:11 1017 30.03 846 24.98 4 39.1 94 3 37.5 4.354 0.171
02:12 1017 30.03 846 24.98 4 39.1 94 3.1 37.5 4.348 0.171
02:13 1017 30.03 846 24.98 3.9 39.1 94 3 37.4 4.314 0.17
02:14 1017 30.03 846 24.98 3.9 39 93 2.9 37.3 4.292 0.169
02:15 1017 30.03 846 24.98 3.9 39 94 3 37.4 4.337 0.171
02:16 1017 30.03 846 24.98 3.9 39.1 93 3 37.4 4.292 0.169
02:17 1017 30.03 846 24.98 3.9 39 93 2.9 37.2 4.246 0.167
02:18 1017 30.03 846 24.98 3.8 38.9 93 2.8 37.1 4.212 0.166
02:19 1017 30.03 846 24.98 3.8 38.9 94 2.9 37.2 4.241 0.167
02:20 1017 30.03 846 24.98 3.9 38.9 94 2.9 37.2 4.218 0.166
02:21 1017 30.03 846 24.98 3.9 39 94 2.9 37.3 4.224 0.166
02:22 1017 30.03 846 24.98 3.8 38.9 93 2.8 37.1 4.201 0.165
02:23 1017 30.03 846 24.98 3.8 38.8 93 2.8 37 4.15 0.163
02:24 1017 30.03 846 24.98 3.8 38.8 93 2.8 37.1 4.111 0.162
02:25 1017 30.03 846 24.98 3.8 38.8 94 2.9 37.2 4.133 0.163
02:26 1017 30.03 846 24.98 3.8 38.9 94 2.9 37.3 4.179 0.165
02:27 1017 30.03 846 24.98 3.8 38.8 94 2.9 37.3 4.19 0.165
02:28 1017 30.03 846 24.98 3.8 38.8 94 2.9 37.3 4.116 0.162
02:29 1017 30.03 846 24.98 3.8 38.8 94 2.9 37.3 4.167 0.164
02:30 1017 30.03 846 24.98 3.8 38.8 94 2.9 37.2 4.128 0.163
02:31 1017 30.03 846 24.98 3.7 38.7 94 2.9 37.2 4.122 0.162
02:32 1017 30.03 846 24.98 3.7 38.7 94 2.8 37.1 4.099 0.161
02:33 1017 30.03 846 24.98 3.7 38.7 94 2.9 37.1 4.054 0.16
02:34 1017 30.03 846 24.98 3.7 38.7 94 2.9 37.1 4.065 0.16
02:35 1017 30.03 846 24.98 3.7 38.7 94 2.9 37.3 4.111 0.162
02:36 1017 30.03 846 24.98 3.7 38.7 95 2.9 37.3 4.06 0.16
02:37 1017 30.03 846 24.98 3.7 38.6 94 2.8 37 4.071 0.16
02:38 1017 30.03 846 24.98 3.7 38.6 94 2.8 37 4.014 0.158
02:39 1017 30.03 846 24.98 3.6 38.5 94 2.8 37 3.986 0.157
02:40 1017 30.03 846 24.98 3.6 38.5 94 2.7 36.9 3.969 0.156
02:41 1017 30.03 846 24.98 3.6 38.5 94 2.8 37 3.913 0.154
02:42 1017 30.03 846 24.98 3.6 38.5 94 2.7 36.9 3.924 0.154
02:43 1017 30.03 846 24.98 3.6 38.5 94 2.7 36.8 3.913 0.154
02:44 1017 30.03 846 24.98 3.6 38.5 94 2.7 36.8 3.93 0.155
02:45 1017 30.03 846 24.98 3.6 38.5 94 2.7 36.9 3.918 0.154
02:46 1017 30.03 846 24.98 3.6 38.5 94 2.7 36.9 3.913 0.154
02:47 1017 30.03 846 24.98 3.6 38.5 94 2.7 36.9 3.901 0.154
02:48 1017 30.03 846 24.98 3.6 38.5 94 2.7 36.9 3.958 0.156
02:49 1017 30.03 846 24.98 3.6 38.4 94 2.7 36.8 3.907 0.154
02:50 1017 30.03 846 24.98 3.6 38.4 94 2.7 36.9 3.873 0.152
02:51 1017 30.03 846 24.98 3.5 38.4 94 2.7 36.9 3.901 0.154
02:52 1017 30.03 846 24.98 3.5 38.4 94 2.7 36.8 3.879 0.153
02:53 1017 30.03 846 24.98 3.5 38.3 95 2.7 36.9 3.901 0.154
02:54 1017 30.03 846 24.98 3.5 38.3 95 2.7 36.9 3.901 0.154
02:55 1017 30.03 846 24.98 3.5 38.3 95 2.7 36.9 3.901 0.154
02:56 1017 30.03 846 24.98 3.5 38.2 95 2.7 36.9 3.901 0.154
02:57 1017 30.03 846 24.98 3.4 38.2 95 2.7 36.8 3.856 0.152
02:58 1017 30.03 846 24.98 3.4 38.2 95 2.7 36.9 3.867 0.152
02:59 1017 30.03 846 24.98 3.5 38.2 95 2.7 36.9 3.862 0.152
03:00 1017 30.03 846 24.98 3.4 38.2 95 2.8 37 3.85 0.152
03:01 1017 30.03 846 24.98 3.4 38.1 95 2.7 36.9 3.873 0.152
03:02 1017 30.03 846 24.98 3.4 38.1 95 2.7 36.9 3.805 0.15
03:03 1017 30.03 846 24.98 3.4 38.1 96 2.8 37 3.839 0.151
03:04 1017 30.03 846 24.98 3.4 38.1 96 2.8 37 3.816 0.15
03:05 1017 30.03 846 24.98 3.4 38.1 96 2.8 37 3.799 0.15
03:06 1017 30.03 846 24.98 3.4 38 96 2.7 36.9 3.777 0.149
03:07 1017 30.03 846 24.98 3.3 38 96 2.7 36.9 3.715 0.146
03:08 1017 30.03 846 24.98 3.3 38 95 2.7 36.8 3.675 0.145
03:09 1017 30.03 846 24.98 3.3 37.9 96 2.7 36.8 3.698 0.146
03:10 1017 30.03 846 24.98 3.3 37.9 96 2.7 36.9 3.652 0.144
03:11 1017 30.03 846 24.98 3.3 37.9 96 2.7 36.9 3.692 0.145
03:12 1017 30.03 846 24.98 3.3 37.9 96 2.7 36.8 3.647 0.144
03:13 1017 30.03 846 24.98 3.2 37.8 96 2.6 36.8 3.664 0.144
03:14 1017 30.03 846 24.98 3.2 37.8 96 2.7 36.8 3.658 0.144
03:15 1017 30.03 846 24.98 3.2 37.8 96 2.7 36.8 3.664 0.144
03:16 1017 30.03 846 24.98 3.2 37.8 96 2.7 36.8 3.607 0.142
03:17 1017 30.03 846 24.98 3.2 37.7 96 2.6 36.7 3.579 0.141
03:18 1017 30.03 846 24.98 3.2 37.7 96 2.6 36.7 3.596 0.142
03:19 1017 30.03 846 24.98 3.2 37.7 96 2.6 36.7 3.601 0.142
03:20 1017 30.03 846 24.98 3.1 37.7 96 2.6 36.7 3.539 0.139
03:21 1017 30.03 846 24.98 3.1 37.7 96 2.6 36.7 3.568 0.14
03:22 1017 30.03 846 24.98 3.2 37.7 96 2.7 36.8 3.59 0.141
03:23 1017 30.03 846 24.98 3.2 37.7 96 2.7 36.8 3.545 0.14
03:24 1017 30.03 846 24.98 3.1 37.6 96 2.6 36.7 3.539 0.139
03:25 1017 30.03 846 24.98 3.1 37.7 96 2.6 36.7 3.522 0.139
03:26 1017 30.03 846 24.98 3.1 37.6 97 2.6 36.7 3.522 0.139
03:27 1017 30.03 847 25.01 3.1 37.6 97 2.6 36.7 3.522 0.139
03:28 1017 30.03 846 24.98 3.1 37.6 97 2.6 36.7 3.545 0.14
03:29 1017 30.03 846 24.98 3.1 37.6 97 2.6 36.7 3.539 0.139
03:30 1017 30.03 846 24.98 3.1 37.5 97 2.6 36.6 3.522 0.139
03:31 1017 30.03 846 24.98 3.1 37.5 97 2.6 36.7 3.511 0.138
03:32 1017 30.03 846 24.98 3.1 37.5 97 2.6 36.7 3.46 0.136
03:33 1017 30.03 846 24.98 3 37.5 97 2.6 36.6 3.471 0.137
03:34 1017 30.03 846 24.98 3 37.5 97 2.5 36.6 3.466 0.136
03:35 1017 30.03 847 25.01 3.1 37.6 97 2.6 36.7 3.471 0.137
03:36 1017 30.03 847 25.01 3.1 37.6 97 2.6 36.7 3.471 0.137
03:37 1017 30.03 847 25.01 3.1 37.5 97 2.6 36.7 3.449 0.136
03:38 1017 30.03 847 25.01 3.1 37.6 97 2.6 36.7 3.488 0.137
03:39 1017 30.03 847 25.01 3.1 37.5 97 2.6 36.7 3.488 0.137
03:40 1017 30.03 847 25.01 3.1 37.5 97 2.6 36.7 3.494 0.138
03:41 1017 30.03 847 25.01 3 37.5 97 2.6 36.6 3.471 0.137
03:42 1017 30.03 846 24.98 3.1 37.5 97 2.6 36.7 3.483 0.137
03:43 1017 30.03 847 25.01 3.1 37.5 97 2.6 36.6 3.483 0.137
03:44 1017 30.03 847 25.01 3 37.5 97 2.6 36.6 3.505 0.138
03:45 1017 30.03 847 25.01 3.1 37.5 97 2.6 36.7 3.466 0.136
03:46 1017 30.03 847 25.01 3.1 37.5 97 2.6 36.7 3.466 0.136
03:47 1017 30.03 847 25.01 3.1 37.6 97 2.6 36.7 3.454 0.136
03:48 1017 30.03 847 25.01 3.1 37.6 97 2.6 36.7 3.483 0.137
03:49 1017 30.03 847 25.01 3.1 37.6 97 2.6 36.8 3.466 0.136
03:50 1017 30.03 846 24.98 3.1 37.6 97 2.6 36.8 3.517 0.138
03:51 1017 30.03 846 24.98 3.1 37.6 97 2.7 36.8 3.477 0.137
03:52 1017 30.03 846 24.98 3.1 37.6 97 2.7 36.8 3.494 0.138
03:53 1017 30.03 846 24.98 3.1 37.6 97 2.7 36.8 3.454 0.136
03:54 1017 30.03 847 25.01 3.1 37.6 97 2.6 36.7 3.494 0.138
03:55 1017 30.03 847 25.01 3.1 37.6 97 2.6 36.8 3.522 0.139
03:56 1017 30.03 846 24.98 3.1 37.6 97 2.7 36.8 3.551 0.14
03:57 1017 30.03 847 25.01 3.1 37.6 97 2.7 36.8 3.511 0.138
03:58 1017 30.03 847 25.01 3.1 37.6 97 2.6 36.7 3.539 0.139
03:59 1017 30.03 846 24.98 3.1 37.6 97 2.7 36.8 3.488 0.137
04:00 1017 30.03 847 25.01 3.1 37.6 97 2.7 36.8 3.511 0.138
04:01 1017 30.03 846 24.98 3.1 37.5 97 2.6 36.7 3.454 0.136
04:02 1017 30.03 846 24.98 3.1 37.6 97 2.6 36.7 3.466 0.136
04:03 1017 30.03 846 24.98 3.1 37.6 97 2.6 36.7 3.443 0.136
04:04 1017 30.03 846 24.98 3.1 37.6 97 2.6 36.8 3.511 0.138
04:05 1017 30.03 846 24.98 3.1 37.6 97 2.6 36.7 3.398 0.134
04:06 1017 30.03 846 24.98 3.1 37.6 97 2.6 36.7 3.42 0.135
04:07 1017 30.03 846 24.98 3.1 37.5 97 2.6 36.7 3.477 0.137
04:08 1017 30.03 846 24.98 3.1 37.5 97 2.6 36.7 3.443 0.136
04:09 1017 30.03 846 24.98 3.1 37.5 97 2.6 36.7 3.409 0.134
04:10 1017 30.03 846 24.98 3 37.5 97 2.6 36.6 3.426 0.135
04:11 1017 30.03 846 24.98 3 37.5 97 2.6 36.6 3.41 0.134
04:12 1017 30.03 846 24.98 3 37.5 97 2.6 36.6 3.428 0.135
04:13 1017 30.03 846 24.98 3 37.5 97 2.5 36.6 3.411 0.134
04:14 1017 30.03 847 25.01 3 37.4 97 2.5 36.6 3.393 0.134
04:15 1017 30.03 847 25.01 3 37.5 97 2.5 36.6 3.376 0.133
04:16 1017 30.03 847 25.01 3.1 37.5 97 2.6 36.6 3.439 0.135
04:17 1017 30.03 847 25.01 3.1 37.5 97 2.6 36.6 3.416 0.134
04:18 1017 30.03 847 25.01 3.1 37.5 97 2.6 36.6 3.416 0.134
04:19 1017 30.03 847 25.01 3.1 37.5 96 2.6 36.6 3.438 0.135
04:20 1017 30.03 847 25.01 3.1 37.5 97 2.6 36.7 3.434 0.135
04:21 1017 30.03 847 25.01 3.1 37.5 97 2.6 36.7 3.485 0.137
04:22 1017 30.03 847 25.01 3.1 37.5 96 2.6 36.6 3.445 0.136
04:23 1017 30.03 847 25.01 3.1 37.5 96 2.5 36.6 3.435 0.135
04:24 1017 30.03 847 25.01 3.1 37.6 96 2.6 36.6 3.412 0.134
04:25 1017 30.03 847 25.01 3.1 37.6 96 2.6 36.6 3.429 0.135
04:26 1017 30.03 847 25.01 3.1 37.5 96 2.5 36.6 3.44 0.135
04:27 1017 30.03 847 25.01 3.1 37.6 96 2.6 36.6 3.44 0.135
04:28 1017 30.03 847 25.01 3.1 37.6 96 2.5 36.6 3.417 0.135
04:29 1017 30.03 847 25.01 3.1 37.6 96 2.6 36.6 3.418 0.135
04:30 1017 30.03 847 25.01 3.1 37.6 96 2.6 36.6 3.464 0.136
04:31 1018 30.06 847 25.01 3.1 37.5 96 2.5 36.5 3.435 0.135
04:32 1017 30.03 847 25.01 3.1 37.6 96 2.5 36.6 3.442 0.136
04:33 1017 30.03 847 25.01 3.1 37.6 96 2.5 36.6 3.442 0.136
04:34 1018 30.06 847 25.01 3.1 37.6 96 2.5 36.5 3.431 0.135
04:35 1017 30.03 847 25.01 3.1 37.6 96 2.6 36.6 3.437 0.135
04:36 1017 30.03 847 25.01 3.1 37.6 96 2.5 36.6 3.425 0.135
04:37 1017 30.03 847 25.01 3.1 37.6 96 2.5 36.5 3.403 0.134
04:38 1017 30.03 847 25.01 3.1 37.6 96 2.5 36.5 3.448 0.136
04:39 1017 30.03 847 25.01 3.1 37.6 96 2.5 36.5 3.454 0.136
04:40 1017 30.03 847 25.01 3.1 37.6 96 2.5 36.5 3.471 0.137
04:41 1017 30.03 847 25.01 3.1 37.6 96 2.5 36.5 3.466 0.136
04:42 1017 30.03 847 25.01 3.1 37.6 96 2.5 36.6 3.46 0.136
04:43 1017 30.03 847 25.01 3.1 37.7 96 2.6 36.7 3.488 0.137
04:44 1017 30.03 847 25.01 3.2 37.7 96 2.6 36.7 3.521 0.139
04:45 1017 30.03 847 25.01 3.1 37.6 96 2.5 36.6 3.504 0.138
04:46 1017 30.03 847 25.01 3.2 37.7 96 2.6 36.6 3.488 0.137
04:47 1017 30.03 847 25.01 3.1 37.6 96 2.5 36.5 3.46 0.136
04:48 1017 30.03 847 25.01 3.1 37.6 96 2.5 36.6 3.516 0.138
04:49 1017 30.03 847 25.01 3.2 37.7 96 2.6 36.6 3.528 0.139
04:50 1018 30.06 847 25.01 3.1 37.7 96 2.5 36.6 3.488 0.137
04:51 1018 30.06 847 25.01 3.1 37.6 96 2.5 36.5 3.488 0.137
04:52 1018 30.06 847 25.01 3.2 37.7 96 2.5 36.5 3.472 0.137
04:53 1018 30.06 847 25.01 3.1 37.6 96 2.5 36.4 3.472 0.137
04:54 1018 30.06 847 25.01 3.1 37.6 96 2.5 36.5 3.483 0.137
04:55 1018 30.06 847 25.01 3.1 37.6 96 2.5 36.5 3.432 0.135
04:56 1018 30.06 847 25.01 3.1 37.6 96 2.5 36.5 3.472 0.137
04:57 1018 30.06 847 25.01 3.1 37.5 95 2.4 36.3 3.455 0.136
04:58 1018 30.06 847 25.01 3.1 37.5 95 2.4 36.3 3.421 0.135
04:59 1018 30.06 847 25.01 3.1 37.6 95 2.4 36.3 3.427 0.135
05:00 1018 30.06 847 25.01 3.1 37.5 95 2.3 36.2 3.399 0.134
05:01 1018 30.06 847 25.01 3 37.5 95 2.3 36.2 3.376 0.133
05:02 1018 30.06 847 25.01 3.1 37.5 95 2.3 36.2 3.337 0.131
05:03 1018 30.06 847 25.01 3.1 37.5 95 2.3 36.2 3.404 0.134
05:04 1018 30.06 847 25.01 3.1 37.5 95 2.4 36.2 3.399 0.134
05:05 1018 30.06 847 25.01 3.1 37.5 95 2.4 36.3 3.388 0.133
05:06 1018 30.06 847 25.01 3 37.5 95 2.3 36.2 3.393 0.134
05:07 1018 30.06 847 25.01 3.1 37.5 95 2.3 36.2 3.405 0.134
05:08 1018 30.06 847 25.01 3.1 37.5 95 2.4 36.3 3.422 0.135
05:09 1018 30.06 847 25.01 3 37.5 95 2.3 36.2 3.433 0.135
05:10 1018 30.06 847 25.01 3.1 37.5 95 2.4 36.3 3.416 0.134
05:11 1018 30.06 847 25.01 3.1 37.5 95 2.3 36.2 3.405 0.134
05:12 1018 30.06 847 25.01 3.1 37.6 95 2.4 36.2 3.444 0.136
05:13 1018 30.06 847 25.01 3.1 37.7 95 2.4 36.3 3.444 0.136
05:14 1018 30.06 847 25.01 3.1 37.7 95 2.4 36.2 3.439 0.135
05:15 1018 30.06 847 25.01 3.1 37.7 95 2.4 36.3 3.484 0.137
05:16 1018 30.06 847 25.01 3.2 37.7 95 2.4 36.3 3.484 0.137
05:17 1018 30.06 847 25.01 3.2 37.7 95 2.4 36.3 3.49 0.137
05:18 1018 30.06 847 25.01 3.2 37.7 95 2.4 36.3 3.484 0.137
05:19 1018 30.06 847 25.01 3.2 37.7 95 2.4 36.3 3.512 0.138
05:20 1018 30.06 847 25.01 3.2 37.7 95 2.4 36.4 3.529 0.139
05:21 1018 30.06 847 25.01 3.2 37.7 95 2.4 36.4 3.524 0.139
05:22 1018 30.06 847 25.01 3.2 37.7 95 2.4 36.4 3.546 0.14
05:23 1018 30.06 847 25.01 3.2 37.7 95 2.5 36.4 3.49 0.137
05:24 1018 30.06 847 25.01 3.2 37.7 95 2.5 36.4 3.535 0.139
05:25 1018 30.06 847 25.01 3.2 37.7 95 2.5 36.5 3.541 0.139
05:26 1018 30.06 847 25.01 3.1 37.6 95 2.4 36.3 3.501 0.138
05:27 1018 30.06 847 25.01 3.1 37.7 95 2.4 36.3 3.53 0.139
05:28 1018 30.06 847 25.01 3.1 37.7 95 2.4 36.3 3.439 0.135
05:29 1018 30.06 847 25.01 3.2 37.7 95 2.4 36.3 3.467 0.136
05:30 1018 30.06 847 25.01 3.1 37.7 95 2.4 36.3 3.428 0.135
05:31 1018 30.06 847 25.01 3.1 37.7 95 2.4 36.3 3.456 0.136
05:32 1018 30.06 847 25.01 3.1 37.7 95 2.4 36.4 3.473 0.137
05:33 1018 30.06 847 25.01 3.1 37.6 95 2.4 36.3 3.445 0.136
05:34 1018 30.06 847 25.01 3.1 37.5 95 2.3 36.2 3.422 0.135
05:35 1018 30.06 847 25.01 3.1 37.5 95 2.3 36.2 3.405 0.134
05:36 1018 30.06 847 25.01 3.1 37.5 95 2.3 36.2 3.411 0.134
05:37 1018 30.06 847 25.01 3.1 37.5 95 2.4 36.2 3.388 0.133
05:38 1018 30.06 847 25.01 3 37.4 95 2.3 36.2 3.416 0.134
05:39 1018 30.06 847 25.01 3.1 37.5 95 2.4 36.3 3.394 0.134
05:40 1018 30.06 847 25.01 3.1 37.6 95 2.4 36.3 3.411 0.134
05:41 1018 30.06 847 25.01 3.1 37.5 95 2.4 36.3 3.428 0.135
05:42 1018 30.06 847 25.01 3 37.5 95 2.4 36.2 3.416 0.134
05:43 1018 30.06 847 25.01 3.1 37.6 95 2.4 36.4 3.433 0.135
05:44 1018 30.06 847 25.01 3.1 37.6 95 2.4 36.4 3.462 0.136
05:45 1018 30.06 847 25.01 3.1 37.6 95 2.5 36.4 3.439 0.135
05:46 1018 30.06 847 25.01 3.2 37.7 95 2.5 36.5 3.467 0.136
05:47 1018 30.06 847 25.01 3.2 37.7 95 2.5 36.5 3.467 0.136
05:48 1018 30.06 847 25.01 3.2 37.7 95 2.5 36.5 3.496 0.138
05:49 1018 30.06 847 25.01 3.2 37.7 95 2.5 36.4 3.496 0.138
05:50 1018 30.06 847 25.01 3.2 37.7 95 2.5 36.5 3.53 0.139
05:51 1018 30.06 847 25.01 3.2 37.7 95 2.5 36.5 3.513 0.138
05:52 1018 30.06 847 25.01 3.2 37.8 95 2.5 36.5 3.558 0.14
05:53 1018 30.06 847 25.01 3.2 37.8 95 2.5 36.5 3.552 0.14
05:54 1018 30.06 847 25.01 3.2 37.7 95 2.5 36.4 3.552 0.14
05:55 1018 30.06 847 25.01 3.2 37.8 95 2.5 36.4 3.518 0.139
05:56 1018 30.06 847 25.01 3.2 37.8 95 2.5 36.4 3.518 0.139
05:57 1018 30.06 847 25.01 3.2 37.8 95 2.5 36.5 3.541 0.139
05:58 1018 30.06 847 25.01 3.2 37.8 95 2.5 36.5 3.524 0.139
05:59 1018 30.06 847 25.01 3.2 37.8 95 2.5 36.5 3.558 0.14
06:00 1018 30.06 847 25.01 3.2 37.8 95 2.5 36.6 3.559 0.14
06:01 1018 30.06 847 25.01 3.2 37.8 95 2.5 36.6 3.565 0.14
06:02 1018 30.06 847 25.01 3.2 37.8 95 2.5 36.6 3.548 0.14
06:03 1018 30.06 847 25.01 3.2 37.8 95 2.5 36.5 3.531 0.139
06:04 1018 30.06 847 25.01 3.2 37.7 95 2.5 36.5 3.57 0.141
06:05 1018 30.06 847 25.01 3.2 37.8 95 2.5 36.5 3.536 0.139
06:06 1018 30.06 847 25.01 3.2 37.8 95 2.5 36.5 3.536 0.139
06:07 1018 30.06 847 25.01 3.2 37.8 95 2.5 36.5 3.536 0.139
06:08 1018 30.06 847 25.01 3.2 37.8 95 2.5 36.5 3.576 0.141
06:09 1018 30.06 847 25.01 3.2 37.8 95 2.5 36.5 3.553 0.14
06:10 1018 30.06 847 25.01 3.2 37.8 95 2.5 36.5 3.547 0.14
06:11 1018 30.06 847 25.01 3.2 37.8 95 2.5 36.4 3.576 0.141
06:12 1018 30.06 847 25.01 3.3 38 95 2.5 36.6 3.598 0.142
06:13 1018 30.06 847 25.01 3.3 37.9 95 2.5 36.5 3.547 0.14
06:14 1018 30.06 847 25.01 3.3 37.9 95 2.5 36.6 3.598 0.142
06:15 1018 30.06 847 25.01 3.3 37.9 95 2.6 36.6 3.621 0.143
06:16 1018 30.06 847 25.01 3.3 38 95 2.6 36.6 3.621 0.143
06:17 1018 30.06 847 25.01 3.3 38 95 2.5 36.5 3.609 0.142
06:18 1018 30.06 847 25.01 3.3 38 95 2.5 36.6 3.672 0.145
06:19 1018 30.06 847 25.01 3.3 38 94 2.5 36.5 3.626 0.143
06:20 1018 30.06 847 25.01 3.4 38 94 2.5 36.6 3.643 0.143
06:21 1018 30.06 847 25.01 3.4 38 94 2.5 36.5 3.66 0.144
06:22 1018 30.06 847 25.01 3.4 38 94 2.5 36.6 3.671 0.145
06:23 1018 30.06 847 25.01 3.3 38 95 2.5 36.6 3.683 0.145
06:24 1018 30.06 847 25.01 3.3 38 94 2.5 36.5 3.673 0.145
06:25 1018 30.06 847 25.01 3.4 38 94 2.5 36.5 3.679 0.145
06:26 1018 30.06 847 25.01 3.3 38 95 2.5 36.6 3.634 0.143
06:27 1018 30.06 847 25.01 3.3 38 94 2.5 36.6 3.663 0.144
06:28 1018 30.06 847 25.01 3.3 38 94 2.5 36.5 3.646 0.144
06:29 1018 30.06 847 25.01 3.3 38 94 2.5 36.5 3.645 0.144
06:30 1018 30.06 847 25.01 3.3 38 94 2.5 36.5 3.668 0.144
06:31 1018 30.06 847 25.01 3.3 38 94 2.5 36.5 3.645 0.144
06:32 1018 30.06 847 25.01 3.3 38 94 2.5 36.5 3.623 0.143
06:33 1018 30.06 847 25.01 3.3 38 94 2.5 36.5 3.703 0.146
06:34 1018 30.06 847 25.01 3.4 38.1 95 2.6 36.7 3.697 0.146
06:35 1018 30.06 847 25.01 3.4 38.1 94 2.6 36.7 3.713 0.146
06:36 1018 30.06 847 25.01 3.4 38 94 2.5 36.5 3.747 0.148
06:37 1018 30.06 847 25.01 3.3 38 94 2.5 36.4 3.674 0.145
06:38 1018 30.06 847 25.01 3.4 38.1 94 2.6 36.6 3.713 0.146
06:39 1018 30.06 847 25.01 3.4 38.1 94 2.6 36.6 3.735 0.147
06:40 1018 30.06 847 25.01 3.4 38.2 94 2.6 36.7 3.741 0.147
06:41 1018 30.06 847 25.01 3.4 38.2 94 2.6 36.7 3.769 0.148
06:42 1018 30.06 847 25.01 3.4 38.2 94 2.6 36.6 3.758 0.148
06:43 1018 30.06 847 25.01 3.4 38.2 94 2.6 36.7 3.775 0.149
06:44 1018 30.06 847 25.01 3.4 38.2 95 2.7 36.8 3.786 0.149
06:45 1018 30.06 847 25.01 3.5 38.2 94 2.6 36.7 3.797 0.149
06:46 1018 30.06 847 25.01 3.4 38.2 94 2.6 36.6 3.791 0.149
06:47 1018 30.06 847 25.01 3.5 38.2 94 2.6 36.7 3.774 0.149
06:48 1018 30.06 847 25.01 3.5 38.2 94 2.6 36.6 3.768 0.148
06:49 1018 30.06 847 25.01 3.5 38.2 94 2.6 36.7 3.797 0.149
06:50 1018 30.06 848 25.04 3.5 38.3 94 2.7 36.8 3.757 0.148
06:51 1018 30.06 848 25.04 3.5 38.3 94 2.6 36.8 3.853 0.152
06:52 1018 30.06 848 25.04 3.5 38.3 94 2.6 36.6 3.83 0.151
06:53 1018 30.06 848 25.04 3.5 38.2 94 2.6 36.6 3.796 0.149
06:54 1018 30.06 848 25.04 3.5 38.2 94 2.5 36.5 3.779 0.149
06:55 1018 30.06 848 25.04 3.5 38.2 94 2.5 36.6 3.779 0.149
06:56 1018 30.06 848 25.04 3.5 38.2 94 2.6 36.7 3.807 0.15
06:57 1018 30.06 848 25.04 3.5 38.3 94 2.6 36.7 3.774 0.149
06:58 1018 30.06 848 25.04 3.5 38.3 94 2.5 36.6 3.796 0.149
06:59 1018 30.06 848 25.04 3.5 38.2 94 2.5 36.6 3.785 0.149
07:00 1018 30.06 848 25.04 3.5 38.3 94 2.6 36.6 3.779 0.149
07:01 1018 30.06 848 25.04 3.5 38.3 94 2.6 36.6 3.79 0.149
07:02 1018 30.06 848 25.04 3.5 38.3 94 2.6 36.7 3.813 0.15
07:03 1018 30.06 848 25.04 3.5 38.3 94 2.6 36.7 3.841 0.151
07:04 1018 30.06 848 25.04 3.5 38.3 93 2.5 36.6 3.881 0.153
07:05 1018 30.06 848 25.04 3.5 38.3 93 2.5 36.5 3.83 0.151
07:06 1018 30.06 848 25.04 3.5 38.3 93 2.5 36.6 3.835 0.151
07:07 1018 30.06 848 25.04 3.5 38.4 94 2.6 36.7 3.847 0.151
07:08 1018 30.06 848 25.04 3.5 38.4 93 2.6 36.6 3.869 0.152
07:09 1018 30.06 848 25.04 3.5 38.4 93 2.5 36.5 3.835 0.151
07:10 1018 30.06 848 25.04 3.5 38.4 93 2.5 36.6 3.847 0.151
07:11 1018 30.06 848 25.04 3.6 38.4 93 2.5 36.5 3.835 0.151
07:12 1018 30.06 848 25.04 3.5 38.4 93 2.5 36.6 3.875 0.153
07:13 1018 30.06 848 25.04 3.6 38.4 93 2.6 36.6 3.881 0.153
07:14 1018 30.06 848 25.04 3.6 38.5 93 2.6 36.7 3.937 0.155
07:15 1018 30.06 848 25.04 3.6 38.5 93 2.5 36.6 3.965 0.156
07:16 1018 30.06 848 25.04 3.6 38.5 93 2.6 36.7 3.903 0.154
07:17 1018 30.06 848 25.04 3.6 38.6 94 2.7 36.9 3.965 0.156
07:18 1018 30.06 848 25.04 3.7 38.6 94 2.8 37 4.022 0.158
07:19 1018 30.06 848 25.04 3.7 38.6 94 2.8 37 4.033 0.159
07:20 1018 30.06 848 25.04 3.7 38.7 94 2.8 37.1 4.084 0.161
07:21 1018 30.06 848 25.04 3.7 38.7 93 2.7 36.8 4.079 0.161
07:22 1018 30.06 848 25.04 3.7 38.7 92 2.6 36.7 4.045 0.159
07:23 1018 30.06 848 25.04 3.7 38.7 93 2.6 36.7 4.045 0.159
07:24 1018 30.06 848 25.04 3.7 38.7 93 2.7 36.9 4.062 0.16
07:25 1019 30.09 848 25.04 3.8 38.8 93 2.8 37 4.146 0.163
07:26 1019 30.09 848 25.04 3.8 38.9 93 2.8 37.1 4.146 0.163
07:27 1019 30.09 848 25.04 3.8 38.9 93 2.8 37.1 4.197 0.165
07:28 1019 30.09 848 25.04 3.9 39 93 2.9 37.2 4.203 0.165
07:29 1019 30.09 848 25.04 3.9 39 92 2.8 37 4.22 0.166
07:30 1019 30.09 848 25.04 3.8 38.9 93 2.7 36.9 4.208 0.166
07:31 1019 30.09 848 25.04 3.9 38.9 92 2.7 36.9 4.196 0.165
07:32 1019 30.09 848 25.04 3.9 39 92 2.8 37 4.19 0.165
07:33 1019 30.09 848 25.04 3.9 39 92 2.8 37 4.218 0.166
07:34 1019 30.09 848 25.04 3.9 39 93 2.9 37.2 4.2 0.165
07:35 1019 30.09 848 25.04 4 39.1 93 3 37.3 4.302 0.169
07:36 1019 30.09 848 25.04 4 39.2 93 2.9 37.3 4.336 0.171
07:37 1019 30.09 848 25.04 4 39.2 93 2.9 37.3 4.365 0.172
07:38 1019 30.09 848 25.04 4 39.3 93 2.9 37.3 4.365 0.172
07:39 1019 30.09 848 25.04 4.1 39.3 93 3 37.3 4.382 0.173
07:40 1019 30.09 848 25.04 4.1 39.3 92 2.8 37.1 4.387 0.173
07:41 1019 30.09 848 25.04 4.1 39.3 92 2.9 37.1 4.347 0.171
07:42 1019 30.09 848 25.04 4.1 39.3 91 2.8 37.1 4.386 0.173
07:43 1019 30.09 848 25.04 4.1 39.3 91 2.8 37 4.425 0.174
07:44 1019 30.09 848 25.04 4.1 39.4 91 2.8 37.1 4.414 0.174
07:45 1019 30.09 848 25.04 4.1 39.5 91 2.9 37.2 4.42 0.174
07:46 1019 30.09 848 25.04 4.2 39.6 91 2.9 37.3 4.483 0.176
07:47 1019 30.09 848 25.04 4.2 39.5 90 2.7 36.8 4.483 0.176
07:48 1019 30.09 848 25.04 4.2 39.6 91 2.9 37.2 4.534 0.179
07:49 1019 30.09 848 25.04 4.3 39.7 91 2.9 37.2 4.557 0.179
07:50 1019 30.09 848 25.04 4.3 39.7 90 2.8 37.1 4.63 0.182
07:51 1019 30.09 848 25.04 4.3 39.8 89 2.6 36.7 4.619 0.182
07:52 1019 30.09 848 25.04 4.3 39.8 91 2.9 37.2 4.603 0.181
07:53 1019 30.09 848 25.04 4.4 39.9 89 2.7 36.9 4.688 0.185
07:54 1019 30.09 848 25.04 4.4 39.9 91 3 37.4 4.687 0.185
07:55 1019 30.09 848 25.04 4.4 40 90 2.9 37.2 4.749 0.187
07:56 1019 30.09 848 25.04 4.5 40 91 3.1 37.5 4.817 0.19
07:57 1019 30.09 848 25.04 4.5 40.1 91 3.1 37.7 4.85 0.191
07:58 1019 30.09 848 25.04 4.6 40.2 91 3.3 37.9 4.912 0.193
07:59 1019 30.09 848 25.04 4.6 40.3 89 2.9 37.2 4.974 0.196
08:00 1019 30.09 848 25.04 4.6 40.3 89 2.9 37.2 4.928 0.194
08:01 1019 30.09 848 25.04 4.6 40.2 88 2.7 36.8 4.866 0.192
08:02 1019 30.09 848 25.04 4.6 40.2 89 3 37.3 4.866 0.192
08:03 1019 30.09 848 25.04 4.6 40.3 89 3 37.4 4.939 0.194
08:04 1019 30.09 848 25.04 4.6 40.4 88 2.8 37.1 4.967 0.196
08:05 1019 30.09 848 25.04 4.7 40.4 89 3.1 37.5 4.973 0.196
08:06 1019 30.09 848 25.04 4.7 40.5 88 2.8 37.1 5.035 0.198
08:07 1019 30.09 848 25.04 4.7 40.5 89 3 37.4 5.006 0.197
08:08 1019 30.09 848 25.04 4.7 40.5 87 2.8 37 5.052 0.199
08:09 1019 30.09 848 25.04 4.7 40.5 87 2.8 37 5.023 0.198
08:10 1019 30.09 848 25.04 4.7 40.4 89 3 37.5 4.995 0.197
08:11 1019 30.09 848 25.04 4.7 40.5 88 2.9 37.3 5.04 0.198
08:12 1019 30.09 848 25.04 4.7 40.5 90 3.1 37.7 5.034 0.198
08:13 1019 30.09 848 25.04 4.7 40.5 87 2.7 36.9 5.079 0.2
08:14 1019 30.09 848 25.04 4.8 40.6 88 2.9 37.3 5.079 0.2
08:15 1019 30.09 848 25.04 4.8 40.6 87 2.8 37.1 5.085 0.2
08:16 1019 30.09 848 25.04 4.8 40.6 88 2.9 37.2 5.102 0.201
08:17 1019 30.09 848 25.04 4.8 40.7 89 3.1 37.6 5.107 0.201
08:18 1019 30.09 848 25.04 4.9 40.8 87 2.9 37.2 5.186 0.204
08:19 1019 30.09 848 25.04 4.9 40.7 88 3.1 37.5 5.198 0.205
08:20 1019 30.09 848 25.04 4.9 40.8 88 3.1 37.5 5.124 0.202
08:21 1019 30.09 848 25.04 4.9 40.9 87 3 37.4 5.18 0.204
08:22 1019 30.09 848 25.04 4.9 40.9 89 3.2 37.8 5.186 0.204
08:23 1019 30.09 848 25.04 5 41 87 3.1 37.5 5.299 0.209
08:24 1019 30.09 848 25.04 5 41 87 3.1 37.5 5.294 0.208
08:25 1019 30.09 848 25.04 5 41.1 84 2.6 36.7 5.361 0.211
08:26 1019 30.09 848 25.04 5.1 41.1 86 3 37.4 5.327 0.21
08:27 1019 30.09 848 25.04 5.1 41.2 86 3 37.4 5.344 0.21
08:28 1019 30.09 848 25.04 5.2 41.3 86 3 37.4 5.401 0.213
08:29 1019 30.09 848 25.04 5.2 41.3 86 3.1 37.5 5.446 0.214
08:30 1019 30.09 848 25.04 5.2 41.4 87 3.3 38 5.503 0.217
08:31 1019 30.09 848 25.04 5.3 41.5 87 3.2 37.8 5.548 0.218
08:32 1019 30.09 848 25.04 5.2 41.4 84 2.7 36.8 5.469 0.215
08:33 1019 30.09 848 25.04 5.2 41.3 85 2.8 37 5.44 0.214
08:34 1019 30.09 848 25.04 5.2 41.3 85 2.8 37 5.469 0.215
08:35 1019 30.09 848 25.04 5.2 41.3 84 2.7 36.8 5.463 0.215
08:36 1019 30.09 848 25.04 5.2 41.4 83 2.6 36.7 5.486 0.216
08:37 1019 30.09 848 25.04 5.2 41.3 82 2.4 36.3 5.525 0.218
08:38 1019 30.09 848 25.04 5.2 41.3 86 3 37.5 5.519 0.217
08:39 1019 30.09 848 25.04 5.3 41.5 85 3 37.4 5.587 0.22
08:40 1019 30.09 848 25.04 5.3 41.5 82 2.5 36.4 5.582 0.22
08:41 1019 30.09 848 25.04 5.2 41.4 82 2.4 36.3 5.525 0.218
08:42 1019 30.09 848 25.04 5.2 41.4 84 2.8 37 5.531 0.218
08:43 1019 30.09 848 25.04 5.2 41.4 82 2.5 36.5 5.61 0.221
08:44 1019 30.09 848 25.04 5.3 41.5 86 3.2 37.7 5.644 0.222
08:45 1019 30.09 848 25.04 5.4 41.7 84 2.9 37.2 5.74 0.226
08:46 1019 30.09 848 25.04 5.4 41.8 84 3 37.4 5.825 0.229
08:47 1019 30.09 848 25.04 5.5 42 83 2.9 37.2 5.972 0.235
08:48 1019 30.09 848 25.04 5.5 42 82 2.8 37 5.91 0.233
08:49 1019 30.09 848 25.04 5.5 41.9 83 2.9 37.2 5.876 0.231
08:50 1019 30.09 848 25.04 5.5 42 83 2.8 37 5.893 0.232
08:51 1019 30.09 848 25.04 5.5 41.9 83 2.9 37.2 5.887 0.232
08:52 1019 30.09 848 25.04 5.6 42 83 2.9 37.1 5.927 0.233
08:53 1019 30.09 848 25.04 5.6 42.1 81 2.6 36.7 5.853 0.23
08:54 1019 30.09 848 25.04 5.6 42 82 2.8 37 5.746 0.226
08:55 1019 30.09 848 25.04 5.7 42.2 86 3.4 38.2 5.831 0.23
08:56 1019 30.09 848 25.04 5.7 42.2 83 3 37.3 6.029 0.237
08:57 1019 30.09 848 25.04 5.7 42.2 82 2.9 37.2 6.034 0.238
08:58 1019 30.09 848 25.04 5.7 42.3 80 2.6 36.6 6.017 0.237
08:59 1019 30.09 848 25.04 5.8 42.4 82 3 37.4 5.961 0.235
09:00 1019 30.09 848 25.04 5.8 42.4 83 3.2 37.7 6.029 0.237
09:01 1019 30.09 848 25.04 5.9 42.6 81 2.8 37.1 6.006 0.236
09:02 1019 30.09 848 25.04 5.9 42.7 81 3 37.3 6.079 0.239
09:03 1019 30.09 848 25.04 6 42.7 77 2.3 36.1 6.045 0.238
09:04 1019 30.09 848 25.04 5.9 42.6 80 2.8 37 6.017 0.237
09:05 1019 30.09 848 25.04 5.9 42.6 80 2.7 36.8 6.176 0.243
09:06 1019 30.09 848 25.04 6 42.8 81 3 37.5 6.294 0.248
09:07 1019 30.09 848 25.04 6.1 42.9 79 2.8 37 6.407 0.252
09:08 1019 30.09 848 25.04 6.2 43.1 79 2.8 37.1 6.513 0.256
09:09 1019 30.09 848 25.04 6.2 43.1 79 2.7 36.9 6.502 0.256
09:10 1019 30.09 848 25.04 6.2 43.1 82 3.4 38.2 6.44 0.254
09:11 1019 30.09 848 25.04 6.2 43.2 80 3.1 37.5 6.614 0.26
09:12 1019 30.09 848 25.04 6.2 43.2 79 2.9 37.2 6.524 0.257
09:13 1019 30.09 848 25.04 6.1 43.1 78 2.6 36.7 6.517 0.257
09:14 1019 30.09 848 25.04 6.1 43 80 3 37.4 6.523 0.257
09:15 1019 30.09 848 25.04 6.2 43.1 78 2.6 36.7 6.5 0.256
09:16 1019 30.09 848 25.04 6.2 43.1 79 2.8 37.1 6.567 0.259
09:17 1019 30.09 848 25.04 6.2 43.2 80 3.1 37.6 6.59 0.259
09:18 1019 30.09 848 25.04 6.2 43.1 79 2.8 37.1 6.612 0.26
09:19 1019 30.09 848 25.04 6.1 43.1 77 2.3 36.2 6.561 0.258
09:20 1019 30.09 848 25.04 6.1 42.9 75 2 35.7 6.464 0.254
09:21 1019 30.09 848 25.04 6 42.8 76 2.1 35.7 6.459 0.254
09:22 1019 30.09 848 25.04 6.1 42.9 78 2.6 36.6 6.475 0.255
09:23 1019 30.09 848 25.04 6.1 42.9 75 1.9 35.5 6.475 0.255
09:24 1019 30.09 848 25.04 6 42.9 76 2.2 35.9 6.464 0.254
09:25 1019 30.09 848 25.04 6.1 42.9 77 2.4 36.3 6.514 0.256
09:26 1019 30.09 848 25.04 6.1 43 78 2.6 36.6 6.519 0.257
09:27 1019 30.09 848 25.04 6.1 42.9 76 2.1 35.8 6.502 0.256
09:28 1019 30.09 848 25.04 6.1 42.9 75 1.9 35.4 6.444 0.254
09:29 1019 30.09 848 25.04 6.1 43 74 1.9 35.5 6.404 0.252
09:30 1019 30.09 848 25.04 6.1 43.1 77 2.4 36.3 6.438 0.253
09:31 1019 30.09 848 25.04 6.1 43.1 73 1.7 35 6.369 0.251
09:32 1019 30.09 848 25.04 6.1 43.1 72 1.4 34.6 6.352 0.25
09:33 1019 30.09 848 25.04 6.1 43 73 1.7 35.1 6.301 0.248
09:34 1019 30.09 848 25.04 6.1 43 72 1.4 34.6 6.306 0.248
09:35 1019 30.09 848 25.04 6.1 42.9 75 1.9 35.5 6.3 0.248
09:36 1019 30.09 848 25.04 6 42.8 75 2 35.6 6.277 0.247
09:37 1019 30.09 848 25.04 6 42.9 78 2.5 36.5 6.333 0.249
09:38 1019 30.09 848 25.04 6 42.8 73 1.6 34.8 6.282 0.247
09:39 1019 30.09 848 25.04 6 42.8 75 1.8 35.3 6.225 0.245
09:40 1019 30.09 848 25.04 6 42.8 73 1.5 34.8 6.208 0.244
09:41 1019 30.09 848 25.04 6 42.8 75 1.9 35.4 6.219 0.245
09:42 1019 30.09 848 25.04 6 42.9 76 2 35.7 6.292 0.248
09:43 1019 30.09 848 25.04 6 42.8 74 1.7 35.1 6.303 0.248
09:44 1019 30.09 848 25.04 6 42.8 77 2.3 36.1 6.241 0.246
09:45 1019 30.09 848 25.04 6 42.8 77 2.3 36.1 6.343 0.25
09:46 1019 30.09 848 25.04 6.1 42.9 76 2.1 35.9 6.32 0.249
09:47 1019 30.09 848 25.04 6.1 43 77 2.3 36.2 6.371 0.251
09:48 1019 30.09 848 25.04 6.1 43 75 2 35.5 6.433 0.253
09:49 1019 30.09 848 25.04 6.1 43.1 75 2.1 35.8 6.489 0.255
09:50 1019 30.09 848 25.04 6.2 43.2 76 2.4 36.2 6.557 0.258
09:51 1019 30.09 848 25.04 6.3 43.4 71 1.4 34.6 6.636 0.261
09:52 1019 30.09 848 25.04 6.2 43.2 75 2 35.7 6.563 0.258
09:53 1019 30.09 848 25.04 6.3 43.3 74 1.9 35.5 6.619 0.261
09:54 1019 30.09 848 25.04 6.3 43.3 75 2.1 35.8 6.659 0.262
09:55 1019 30.09 848 25.04 6.3 43.3 77 2.5 36.5 6.709 0.264
09:56 1019 30.09 848 25.04 6.3 43.4 74 2 35.5 6.743 0.265
09:57 1019 30.09 848 25.04 6.3 43.4 75 2.2 36 6.704 0.264
09:58 1019 30.09 848 25.04 6.3 43.3 73 1.8 35.3 6.664 0.262
09:59 1019 30.09 848 25.04 6.3 43.3 77 2.5 36.4 6.67 0.263
10:00 1019 30.09 848 25.04 6.3 43.4 78 2.7 36.8 6.754 0.266
10:01 1019 30.09 848 25.04 6.4 43.5 75 2.3 36.2 6.749 0.266
10:02 1019 30.09 848 25.04 6.4 43.5 74 2.1 35.7 6.726 0.265
10:03 1019 30.09 848 25.04 6.4 43.4 71 1.5 34.7 6.59 0.259
10:04 1019 30.09 848 25.04 6.3 43.3 72 1.7 35.1 6.641 0.261
10:05 1019 30.09 848 25.04 6.4 43.5 75 2.4 36.2 6.715 0.264
10:06 1019 30.09 848 25.04 6.5 43.7 73 2.1 35.7 6.833 0.269
10:07 1019 30.09 848 25.04 6.6 43.9 75 2.5 36.4 6.946 0.273
10:08 1019 30.09 848 25.04 6.7 44 73 2.1 35.8 7.06 0.278
10:09 1019 30.09 848 25.04 6.7 44 71 1.9 35.4 7.14 0.281
10:10 1019 30.09 848 25.04 6.7 44.1 70 1.7 35 7.11 0.28
10:11 1019 30.09 848 25.04 6.7 44.1 74 2.5 36.5 7.12 0.28
10:12 1019 30.09 848 25.04 6.7 44.1 75 2.6 36.7 7.21 0.284
10:13 1019 30.09 848 25.04 6.8 44.2 71 1.8 35.3 7.18 0.283
10:14 1019 30.09 848 25.04 6.8 44.2 73 2.3 36.1 7.09 0.279
10:15 1019 30.09 848 25.04 6.8 44.2 71 1.9 35.5 7.09 0.279
10:16 1019 30.09 848 25.04 6.8 44.2 71 1.9 35.5 7.2 0.283
10:17 1019 30.09 848 25.04 6.9 44.3 71 2 35.5 7.3 0.287
10:18 1019 30.09 848 25.04 6.8 44.2 69 1.5 34.8 7.23 0.285
10:19 1019 30.09 848 25.04 6.8 44.2 71 2 35.5 7.25 0.285
10:20 1019 30.09 848 25.04 6.8 44.3 72 2.2 35.9 7.2 0.283
10:21 1019 30.09 848 25.04 6.8 44.2 69 1.5 34.7 7.19 0.283
10:22 1019 30.09 848 25.04 6.7 44.1 69 1.5 34.7 7.1 0.28
10:23 1019 30.09 848 25.04 6.7 44 71 1.7 35.1 7.08 0.279
10:24 1019 30.09 848 25.04 6.7 44 74 2.3 36.2 7.11 0.28
10:25 1019 30.09 848 25.04 6.7 44.1 72 2 35.7 7.21 0.284
10:26 1019 30.09 848 25.04 6.9 44.3 76 2.8 37.1 7.34 0.289
10:27 1019 30.09 848 25.04 7 44.6 78 3.4 38.2 7.46 0.294
10:28 1019 30.09 848 25.04 7.1 44.9 73 2.6 36.8 7.56 0.298
10:29 1019 30.09 848 25.04 7.2 44.9 73 2.6 36.6 7.44 0.293
10:30 1019 30.09 848 25.04 7.2 44.9 73 2.7 36.9 7.44 0.293
10:31 1019 30.09 848 25.04 7.1 44.7 73 2.5 36.6 7.34 0.289
10:32 1019 30.09 848 25.04 7 44.6 76 3 37.4 7.29 0.287
10:33 1019 30.09 848 25.04 7 44.6 74 2.6 36.8 7.36 0.29
10:34 1019 30.09 848 25.04 7.1 44.7 73 2.5 36.5 7.39 0.291
10:35 1019 30.09 848 25.04 7.1 44.9 74 2.9 37.2 7.43 0.293
10:36 1019 30.09 848 25.04 7.3 45.1 73 2.7 36.9 7.62 0.3
10:37 1019 30.09 848 25.04 7.4 45.2 70 2.3 36.1 7.65 0.301
10:38 1019 30.09 848 25.04 7.4 45.3 72 2.7 36.8 7.64 0.301
10:39 1019 30.09 848 25.04 7.4 45.4 69 2.1 35.7 7.68 0.302
10:40 1019 30.09 848 25.04 7.4 45.4 68 1.9 35.3 7.61 0.3
10:41 1019 30.09 848 25.04 7.5 45.4 69 2.3 36.1 7.68 0.302
10:42 1019 30.09 848 25.04 7.4 45.4 64 1 33.8 7.62 0.3
10:43 1019 30.09 848 25.04 7.4 45.2 67 1.6 34.8 7.62 0.3
10:44 1019 30.09 848 25.04 7.3 45.1 63 0.8 33.5 7.6 0.299
10:45 1019 30.09 848 25.04 7.2 44.9 66 1.2 34.1 7.57 0.298
10:46 1019 30.09 848 25.04 7.2 44.9 70 2.1 35.7 7.69 0.303
10:47 1019 30.09 848 25.04 7.2 45 67 1.5 34.6 7.75 0.305
10:48 1019 30.09 848 25.04 7.2 45 68 1.7 35 7.69 0.303
10:49 1019 30.09 848 25.04 7.2 44.9 67 1.6 34.8 7.68 0.302
10:50 1019 30.09 848 25.04 7.1 44.8 66 1.2 34.2 7.67 0.302
10:51 1019 30.09 848 25.04 7.1 44.8 72 2.5 36.4 7.73 0.304
10:52 1019 30.09 848 25.04 7.3 45.1 73 2.9 37.1 7.98 0.314
10:53 1019 30.09 848 25.04 7.5 45.5 75 3.4 38.2 8.17 0.322
10:54 1019 30.09 848 25.04 7.7 45.8 66 1.8 35.2 8.27 0.326
10:55 1019 30.09 848 25.04 7.6 45.8 65 1.5 34.8 8.03 0.316
10:56 1019 30.09 848 25.04 7.6 45.7 67 1.9 35.4 7.86 0.309
10:57 1019 30.09 848 25.04 7.6 45.7 65 1.4 34.6 7.88 0.31
10:58 1019 30.09 848 25.04 7.7 45.8 63 1.2 34.1 7.94 0.313
10:59 1019 30.09 848 25.04 7.7 45.9 64 1.5 34.6 8.08 0.318
11:00 1019 30.09 848 25.04 7.8 46 64 1.4 34.6 8.13 0.32
11:01 1019 30.09 848 25.04 7.9 46.3 68 2.3 36.2 8.13 0.32
11:02 1019 30.09 848 25.04 8.1 46.5 68 2.6 36.6 8.37 0.33
11:03 1019 30.09 848 25.04 8.1 46.6 66 2.2 36 8.54 0.336
11:04 1019 30.09 848 25.04 8.1 46.7 64 1.7 35.1 8.56 0.337
11:05 1019 30.09 848 25.04 7.9 46.2 64 1.6 34.9 8.32 0.328
11:06 1019 30.09 848 25.04 7.9 46.2 70 2.8 37 8.29 0.326
11:07 1019 30.09 848 25.04 8 46.4 64 1.6 34.9 8.42 0.331
11:08 1019 30.09 848 25.04 8.2 46.7 67 2.5 36.6 8.49 0.334
11:09 1019 30.09 848 25.04 8.2 46.8 62 1.4 34.5 8.38 0.33
11:10 1019 30.09 848 25.04 8.2 46.8 62 1.5 34.7 8.35 0.329
11:11 1019 30.09 848 25.04 8.3 46.9 64 1.9 35.5 8.52 0.335
11:12 1019 30.09 848 25.04 8.4 47.2 67 2.7 36.9 8.69 0.342
11:13 1019 30.09 848 25.04 8.5 47.3 64 2.1 35.8 8.81 0.347
11:14 1019 30.09 848 25.04 8.5 47.4 65 2.3 36.2 8.88 0.35
11:15 1019 30.09 848 25.04 8.6 47.5 67 3 37.3 9.03 0.356
11:16 1019 30.09 848 25.04 8.8 47.9 63 2.3 36.1 9.16 0.361
11:17 1019 30.09 848 25.04 8.9 48 62 2.1 35.9 9 0.354
11:18 1019 30.09 848 25.04 8.8 47.8 61 1.8 35.2 8.92 0.351
11:19 1019 30.09 848 25.04 8.8 47.8 67 2.9 37.3 8.97 0.353
11:20 1019 30.09 848 25.04 8.8 47.8 67 3 37.3 9.14 0.36
11:21 1019 30.09 848 25.04 8.8 47.9 65 2.7 36.9 9.06 0.357
11:22 1019 30.09 848 25.04 8.9 48 62 1.9 35.5 9.03 0.356
11:23 1019 30.09 848 25.04 8.8 47.9 59 1.4 34.5 8.92 0.351
11:24 1019 30.09 848 25.04 8.6 47.5 66 2.6 36.6 8.76 0.345
11:25 1019 30.09 848 25.04 8.6 47.4 68 3 37.5 8.84 0.348
11:26 1019 30.09 848 25.04 8.6 47.6 59 1.1 34 8.89 0.35
11:27 1019 30.09 848 25.04 8.6 47.5 63 2.1 35.7 8.71 0.343
11:28 1019 30.09 848 25.04 8.5 47.3 64 2.2 35.9 8.7 0.343
11:29 1019 30.09 848 25.04 8.6 47.4 60 1.4 34.5 8.7 0.343
11:30 1019 30.09 848 25.04 8.5 47.2 62 1.6 34.8 8.62 0.339
11:31 1019 30.09 848 25.04 8.6 47.4 66 2.7 36.8 8.72 0.343
11:32 1019 30.09 848 25.04 8.6 47.6 65 2.4 36.3 8.88 0.35
11:33 1019 30.09 848 25.04 8.7 47.6 62 1.8 35.2 8.97 0.353
11:34 1019 30.09 848 25.04 8.8 47.8 68 3.2 37.7 9.08 0.357
11:35 1019 30.09 848 25.04 8.8 47.9 63 2.3 36.1 9.12 0.359
11:36 1019 30.09 848 25.04 8.7 47.6 66 2.7 36.9 8.92 0.351
11:37 1019 30.09 848 25.04 8.5 47.3 65 2.3 36.2 8.82 0.347
11:38 1019 30.09 848 25.04 8.5 47.2 65 2.2 36 8.75 0.344
11:39 1019 30.09 848 25.04 8.4 47.2 66 2.4 36.3 8.76 0.345
11:40 1019 30.09 848 25.04 8.5 47.3 66 2.5 36.5 8.84 0.348
11:41 1019 30.09 848 25.04 8.7 47.6 60 1.3 34.4 9.1 0.358
11:42 1019 30.09 848 25.04 8.9 48.1 61 1.9 35.4 9.34 0.368
11:43 1019 30.09 848 25.04 9.2 48.5 62 2.4 36.3 9.55 0.376
11:44 1019 30.09 848 25.04 9.2 48.5 67 3.3 37.9 9.62 0.379
11:45 1019 30.09 848 25.04 9.1 48.4 59 1.6 34.8 9.54 0.376
11:46 1019 30.09 848 25.04 9.1 48.3 59 1.5 34.7 9.59 0.378
11:47 1019 30.09 848 25.04 9.3 48.7 70 4 39.2 9.74 0.383
11:48 1019 30.09 848 25.04 9.6 49.3 59 2.1 35.8 10.12 0.398
11:49 1019 30.09 848 25.04 9.7 49.5 59 2.2 36 9.94 0.391
11:50 1019 30.09 848 25.04 9.7 49.4 67 3.8 38.8 9.85 0.388
11:51 1019 30.09 848 25.04 9.8 49.6 63 3 37.4 10.01 0.394
11:52 1019 30.09 848 25.04 9.6 49.3 55 1.2 34.1 9.83 0.387
11:53 1019 30.09 848 25.04 9.4 48.9 61 2.3 36.1 9.72 0.383
11:54 1019 30.09 848 25.04 9.4 48.9 60 2 35.6 9.71 0.382
11:55 1019 30.09 848 25.04 9.4 49 62 2.6 36.6 9.7 0.382
11:56 1019 30.09 848 25.04 9.5 49 58 1.7 35.1 9.83 0.387
11:57 1019 30.09 848 25.04 9.5 49.1 69 4.2 39.5 9.96 0.392
11:58 1019 30.09 848 25.04 9.7 49.4 61 2.5 36.5 10.13 0.399
11:59 1019 30.09 848 25.04 9.8 49.7 56 1.4 34.5 10.16 0.4
12:00 1019 30.09 848 25.04 10 50 61 2.9 37.3 10.15 0.4
12:01 1019 30.09 848 25.04 10 50 53 0.8 33.5 10.16 0.4
12:02 1019 30.09 848 25.04 9.8 49.7 62 3 37.5 9.92 0.391
12:03 1019 30.09 848 25.04 9.8 49.7 63 3.1 37.6 9.87 0.389
12:04 1019 30.09 848 25.04 9.8 49.7 68 4.3 39.7 10.05 0.396
12:05 1019 30.09 848 25.04 10 50 62 3.2 37.7 10.22 0.402
12:06 1019 30.09 848 25.04 10 50 59 2.3 36.2 10.05 0.396
12:07 1019 30.09 848 25.04 9.9 49.9 60 2.6 36.6 9.97 0.393
12:08 1019 30.09 848 25.04 9.8 49.7 58 2 35.5 9.93 0.391
12:09 1019 30.09 848 25.04 9.9 49.8 56 1.5 34.7 10.14 0.399
12:10 1019 30.09 848 25.04 10 50.1 60 2.6 36.6 10.35 0.407
12:11 1019 30.09 848 25.04 10.2 50.3 54 1.4 34.5 10.45 0.411
12:12 1019 30.09 848 25.04 10.1 50.1 60 2.7 36.9 10.16 0.4
12:13 1019 30.09 848 25.04 9.7 49.5 57 1.6 34.9 9.83 0.387
12:14 1019 30.09 848 25.04 9.4 48.9 54 0.6 33.1 9.44 0.372
12:15 1019 30.09 848 25.04 9.1 48.4 57 1.2 34.1 9.19 0.362
12:16 1019 30.09 848 25.04 9 48.1 62 2.1 35.8 9.13 0.359
12:17 1019 30.09 848 25.04 9.1 48.3 58 1.3 34.3 9.3 0.366
12:18 1019 30.09 848 25.04 9.1 48.4 61 2 35.7 9.4 0.37
12:19 1019 30.09 848 25.04 9.2 48.6 66 3.2 37.7 9.53 0.375
12:20 1019 30.09 848 25.04 9.4 48.8 63 2.8 37.1 9.66 0.38
12:21 1019 30.09 848 25.04 9.3 48.8 63 2.8 37 9.56 0.376
12:22 1019 30.09 848 25.04 9.3 48.7 58 1.5 34.7 9.57 0.377
12:23 1019 30.09 848 25.04 9.3 48.7 65 3 37.5 9.52 0.375
12:24 1019 30.09 848 25.04 9.3 48.7 62 2.5 36.5 9.51 0.374
12:25 1019 30.09 848 25.04 9.2 48.5 63 2.6 36.7 9.45 0.372
12:26 1019 30.09 848 25.04 9.1 48.4 59 1.5 34.8 9.27 0.365
12:27 1019 30.09 848 25.04 9 48.2 62 2.2 36 9.16 0.361
12:28 1019 30.09 848 25.04 9.1 48.3 61 2 35.6 9.19 0.362
12:29 1019 30.09 848 25.04 9.1 48.4 65 2.9 37.3 9.32 0.367
12:30 1019 30.09 848 25.04 9.3 48.7 61 2.2 36 9.55 0.376
12:31 1019 30.09 848 25.04 9.5 49.1 61 2.3 36.1 9.69 0.381
12:32 1019 30.09 848 25.04 9.6 49.3 70 4.4 39.9 9.84 0.387
12:33 1019 30.09 848 25.04 9.8 49.6 60 2.4 36.4 10.04 0.395
12:34 1019 30.09 848 25.04 9.9 49.8 59 2.4 36.3 10.18 0.401
12:35 1019 30.09 848 25.04 9.9 49.7 66 3.8 38.9 10.22 0.402
12:36 1019 30.09 848 25.04 9.9 49.9 68 4.2 39.6 10.38 0.409
12:37 1019 30.09 848 25.04 10 49.9 56 1.6 34.8 10.41 0.41
12:38 1019 30.09 848 25.04 9.9 49.8 62 2.9 37.2 10.33 0.407
12:39 1019 30.09 848 25.04 9.9 49.8 63 3.2 37.7 10.36 0.408
12:40 1019 30.09 848 25.04 9.9 49.9 55 1.4 34.4 10.44 0.411
12:41 1019 30.09 848 25.04 10 49.9 62 3.1 37.7 10.5 0.413
12:42 1019 30.09 848 25.04 10.1 50.2 69 4.7 40.4 10.67 0.42
12:43 1019 30.09 848 25.04 10.4 50.7 57 2.2 36 10.95 0.431
12:44 1019 30.09 848 25.04 10.4 50.8 55 1.9 35.5 11.06 0.435
12:45 1019 30.09 848 25.04 10.4 50.6 62 3.5 38.2 10.81 0.426
12:46 1019 30.09 848 25.04 10.3 50.5 65 4.1 39.3 10.66 0.42
12:47 1019 30.09 848 25.04 10.1 50.2 62 3.2 37.7 10.42 0.41
12:48 1019 30.09 848 25.04 9.8 49.7 64 3.4 38.2 10.1 0.398
12:49 1019 30.09 848 25.04 9.6 49.3 61 2.4 36.3 9.81 0.386
12:50 1019 30.09 848 25.04 9.5 49.2 62 2.7 36.9 9.86 0.388
12:51 1019 30.09 848 25.04 9.8 49.6 62 2.8 37 10.14 0.399
12:52 1019 30.09 848 25.04 10 50 58 2.2 36 10.29 0.405
12:53 1019 30.09 848 25.04 10.1 50.1 63 3.5 38.2 10.25 0.404
12:54 1019 30.09 848 25.04 10.1 50.1 60 2.7 36.8 10.23 0.403
12:55 1019 30.09 848 25.04 10.1 50.1 63 3.3 38 10.29 0.405
12:56 1019 30.09 848 25.04 10.2 50.3 60 2.7 36.9 10.49 0.413
12:57 1019 30.09 848 25.04 10.3 50.5 60 2.8 37.1 10.64 0.419
12:58 1019 30.09 848 25.04 10.3 50.6 56 1.9 35.5 10.61 0.418
12:59 1019 30.09 848 25.04 10.4 50.8 61 3.3 37.9 10.82 0.426
13:00 1019 30.09 848 25.04 10.6 51.1 56 2.1 35.8 11.02 0.434
13:01 1019 30.09 848 25.04 10.6 51 53 1.4 34.5 10.78 0.424
13:02 1019 30.09 848 25.04 10.5 50.9 49 0.2 32.3 10.58 0.417
13:03 1019 30.09 848 25.04 10.4 50.7 55 1.8 35.3 10.58 0.417
13:04 1019 30.09 848 25.04 10.4 50.6 59 2.8 37.1 10.7 0.421
13:05 1019 30.09 848 25.04 10.5 50.9 57 2.5 36.4 10.9 0.429
13:06 1019 30.09 848 25.04 10.6 51.1 67 4.7 40.5 10.79 0.425
13:07 1019 30.09 848 25.04 10.6 51 55 1.9 35.4 10.81 0.426
13:08 1019 30.09 848 25.04 10.4 50.7 60 3 37.4 10.58 0.417
13:09 1019 30.09 848 25.04 10.2 50.3 61 3.1 37.5 10.41 0.41
13:10 1019 30.09 848 25.04 10 50 62 3.1 37.5 10.2 0.402
13:11 1019 30.09 848 25.04 10 49.9 62 3.1 37.6 10.2 0.402
13:12 1019 30.09 848 25.04 10 50 58 2.1 35.7 10.28 0.405
13:13 1019 30.09 848 25.04 10.2 50.4 60 2.9 37.3 10.41 0.41
13:14 1019 30.09 848 25.04 10.4 50.6 63 3.7 38.7 10.58 0.417
13:15 1019 30.09 848 25.04 10.5 50.8 62 3.5 38.3 10.78 0.424
13:16 1019 30.09 848 25.04 10.6 51.1 51 0.9 33.5 10.93 0.43
13:17 1019 30.09 848 25.04 10.6 51 63 3.9 39.1 10.92 0.43
13:18 1019 30.09 848 25.04 10.7 51.3 63 4.1 39.4 11.17 0.44
13:19 1019 30.09 848 25.04 11.1 51.9 52 1.7 35.1 11.53 0.454
13:20 1018 30.06 848 25.04 11.3 52.3 59 3.5 38.3 11.67 0.459
13:21 1018 30.06 848 25.04 11.5 52.7 61 4.4 39.9 11.97 0.471
13:22 1018 30.06 848 25.04 11.8 53.2 51 1.9 35.5 12.21 0.481
13:23 1018 30.06 848 25.04 11.9 53.4 52 2.3 36.1 12.07 0.475
13:24 1018 30.06 848 25.04 11.9 53.5 53 2.7 36.9 12.03 0.474
13:25 1018 30.06 848 25.04 11.7 53.1 48 1.3 34.3 11.96 0.471
13:26 1018 30.06 848 25.04 11.4 52.5 58 3.5 38.3 11.47 0.452
13:27 1018 30.06 848 25.04 11 51.9 55 2.4 36.3 11.14 0.439
13:28 1018 30.06 848 25.04 10.8 51.4 53 1.7 35 10.81 0.426
13:29 1018 30.06 848 25.04 10.7 51.3 62 3.8 38.9 10.97 0.432
13:30 1018 30.06 848 25.04 10.9 51.7 51 1.2 34.2 11.15 0.439
13:33 1018 30.06 848 25.04 10.7 51.2 58 2.7 36.9 10.68 0.42
13:34 1018 30.06 848 25.04 10.6 51 52 1.3 34.3 10.75 0.423
13:35 1018 30.06 848 25.04 10.5 51 54 1.6 34.9 10.69 0.421
13:36 1018 30.06 848 25.04 10.5 50.9 56 2.2 36 10.63 0.419
13:37 1018 30.06 848 25.04 10.4 50.7 59 2.6 36.8 10.48 0.413
13:38 1018 30.06 848 25.04 10.3 50.5 51 0.5 33 10.43 0.411
13:39 1018 30.06 848 25.04 10.3 50.5 54 1.5 34.7 10.56 0.416
13:40 1018 30.06 848 25.04 10.5 50.9 51 0.9 33.5 10.79 0.425
13:41 1018 30.06 848 25.04 10.7 51.3 55 2 35.6 11.04 0.435
13:42 1018 30.06 848 25.04 10.9 51.6 57 2.8 37.1 11.24 0.443
13:43 1018 30.06 848 25.04 11.1 51.9 55 2.5 36.4 11.33 0.446
13:44 1018 30.06 848 25.04 11 51.9 51 1.4 34.6 11.3 0.445
13:45 1018 30.06 848 25.04 11 51.9 53 1.8 35.3 11.37 0.448
13:46 1018 30.06 847 25.01 11.3 52.3 59 3.7 38.7 11.67 0.459
13:47 1018 30.06 847 25.01 11.5 52.6 59 3.7 38.7 11.78 0.464
13:48 1018 30.06 847 25.01 11.6 52.8 61 4.3 39.8 11.88 0.468
13:49 1018 30.06 847 25.01 11.6 52.9 56 3.2 37.7 11.88 0.468
13:50 1018 30.06 847 25.01 11.5 52.8 58 3.7 38.7 11.7 0.461
13:51 1018 30.06 847 25.01 11.4 52.6 59 3.7 38.6 11.66 0.459
13:52 1018 30.06 847 25.01 11.4 52.5 59 3.7 38.6 11.67 0.459
13:53 1018 30.06 847 25.01 11.3 52.4 53 2 35.7 11.49 0.452
13:54 1018 30.06 847 25.01 11.2 52.1 54 2.2 35.9 11.32 0.446
13:55 1018 30.06 847 25.01 11.2 52.1 53 1.9 35.5 11.29 0.444
13:56 1018 30.06 847 25.01 11.2 52.2 57 3 37.4 11.4 0.449
13:57 1018 30.06 847 25.01 11 51.8 56 2.6 36.7 11.24 0.443
13:58 1018 30.06 847 25.01 10.7 51.3 50 0.8 33.4 10.92 0.43
13:59 1018 30.06 847 25.01 10.4 50.8 53 1.3 34.3 10.62 0.418
14:00 1018 30.06 847 25.01 10.2 50.3 55 1.6 34.9 10.42 0.41
14:01 1018 30.06 847 25.01 10 50 61 2.8 37 10.29 0.405
14:02 1018 30.06 847 25.01 9.9 49.8 55 1.2 34.2 10.25 0.404
14:03 1018 30.06 847 25.01 9.9 49.8 58 2.1 35.7 10.21 0.402
14:04 1018 30.06 847 25.01 10 50 53 1 33.8 10.37 0.408
14:05 1018 30.06 847 25.01 10.2 50.3 65 3.9 39 10.54 0.415
14:06 1018 30.06 847 25.01 10.5 50.8 64 4 39.2 10.93 0.43
14:07 1018 30.06 847 25.01 10.7 51.2 55 2.1 35.8 11.05 0.435
14:08 1018 30.06 847 25.01 10.8 51.4 59 3.2 37.8 11.08 0.436
14:09 1018 30.06 847 25.01 10.9 51.7 56 2.7 36.8 11.2 0.441
14:10 1018 30.06 847 25.01 11.1 52 69 5.7 42.2 11.39 0.448
14:11 1018 30.06 847 25.01 11.4 52.5 64 4.9 40.8 11.77 0.463
14:12 1018 30.06 847 25.01 11.6 52.9 49 1.4 34.5 12.02 0.473
14:13 1018 30.06 847 25.01 11.5 52.7 53 2.4 36.3 11.92 0.469
14:14 1018 30.06 847 25.01 11.5 52.6 60 4 39.1 11.99 0.472
14:15 1018 30.06 847 25.01 11.6 52.9 55 3.1 37.5 12.07 0.475
14:16 1018 30.06 847 25.01 11.7 53 55 3.1 37.5 12.12 0.477
14:17 1018 30.06 847 25.01 11.7 53.1 54 2.7 36.9 12.03 0.474
14:18 1018 30.06 847 25.01 11.6 53 53 2.4 36.4 11.83 0.466
14:19 1018 30.06 847 25.01 11.5 52.7 57 3.4 38.2 11.68 0.46
14:20 1018 30.06 847 25.01 11.5 52.7 56 3.2 37.7 11.68 0.46
14:21 1018 30.06 847 25.01 11.5 52.7 59 3.8 38.8 11.69 0.46
14:22 1018 30.06 847 25.01 11.5 52.6 51 1.7 35 11.69 0.46
14:23 1018 30.06 847 25.01 11.3 52.4 60 3.9 39 11.55 0.455
14:24 1018 30.06 847 25.01 11.1 52 52 1.8 35.2 11.42 0.45
14:25 1018 30.06 847 25.01 10.9 51.7 57 2.8 37 11.29 0.444
14:26 1018 30.06 847 25.01 11 51.8 52 1.5 34.7 11.33 0.446
14:27 1018 30.06 847 25.01 11.1 51.9 49 0.8 33.5 11.4 0.449
14:28 1018 30.06 847 25.01 11.1 52.1 62 4.3 39.7 11.52 0.454
14:29 1018 30.06 847 25.01 11.4 52.5 52 1.9 35.5 11.69 0.46
14:30 1018 30.06 847 25.01 11.5 52.7 53 2.3 36.2 11.77 0.463
14:31 1018 30.06 847 25.01 11.6 52.9 58 3.8 38.8 11.81 0.465
14:32 1018 30.06 847 25.01 11.7 53 46 0.5 32.8 11.86 0.467
14:33 1018 30.06 847 25.01 11.7 53 55 3 37.5 11.73 0.462
14:34 1018 30.06 847 25.01 11.6 52.9 54 2.6 36.8 11.77 0.463
14:35 1018 30.06 847 25.01 11.6 52.9 59 3.8 38.9 11.81 0.465
14:36 1018 30.06 847 25.01 11.6 52.9 52 2 35.7 11.85 0.467
14:37 1018 30.06 847 25.01 11.6 53 55 3.1 37.6 11.94 0.47
14:38 1018 30.06 847 25.01 11.8 53.2 55 3.2 37.7 12.12 0.477
14:39 1018 30.06 847 25.01 11.9 53.4 55 3.3 37.9 12.11 0.477
14:40 1018 30.06 847 25.01 11.9 53.4 54 2.9 37.3 12.12 0.477
14:41 1018 30.06 847 25.01 11.8 53.3 58 3.9 38.9 11.97 0.471
14:42 1018 30.06 847 25.01 11.7 53.1 56 3.2 37.8 11.93 0.47
14:43 1018 30.06 847 25.01 11.7 53.1 56 3.3 38 11.97 0.471
14:44 1018 30.06 847 25.01 11.8 53.2 63 5 41 12.01 0.473
14:45 1018 30.06 847 25.01 11.9 53.5 61 4.7 40.5 12.33 0.485
14:46 1018 30.06 847 25.01 12.1 53.7 55 3.4 38.2 12.36 0.487
14:47 1018 30.06 847 25.01 12.1 53.7 52 2.5 36.5 12.36 0.487
14:48 1018 30.06 847 25.01 12 53.6 49 1.8 35.2 12.23 0.481
14:49 1018 30.06 847 25.01 12 53.5 57 3.8 38.8 12.21 0.481
14:50 1018 30.06 847 25.01 12 53.7 54 3 37.4 12.32 0.485
14:51 1018 30.06 847 25.01 12.1 53.8 48 1.6 34.9 12.31 0.485
14:52 1018 30.06 847 25.01 11.9 53.5 52 2.6 36.6 12.12 0.477
14:53 1018 30.06 847 25.01 11.9 53.4 54 3 37.4 12.08 0.476
14:54 1018 30.06 847 25.01 11.9 53.5 55 3.2 37.8 12.13 0.478
14:55 1018 30.06 847 25.01 11.9 53.4 59 4.1 39.4 12.1 0.476
14:56 1018 30.06 847 25.01 11.9 53.4 45 0.3 32.5 12.05 0.474
14:57 1018 30.06 847 25.01 11.7 53.1 50 1.6 34.9 11.86 0.467
14:58 1018 30.06 847 25.01 11.5 52.7 60 4.1 39.4 11.69 0.46
14:59 1018 30.06 847 25.01 11.5 52.7 56 3 37.4 11.84 0.466
15:00 1018 30.06 847 25.01 11.6 52.9 60 4.2 39.6 12.02 0.473
15:01 1018 30.06 847 25.01 11.8 53.2 53 2.7 36.8 12.1 0.476
15:02 1018 30.06 847 25.01 11.9 53.4 48 1.3 34.3 12.15 0.478
15:03 1018 30.06 847 25.01 11.8 53.2 50 1.7 35 12.03 0.474
15:04 1018 30.06 847 25.01 11.8 53.2 54 2.7 36.9 12.05 0.474
15:05 1018 30.06 847 25.01 11.8 53.2 51 2 35.7 12.04 0.474
15:06 1018 30.06 847 25.01 11.7 53.1 51 2 35.6 11.93 0.47
15:07 1018 30.06 847 25.01 11.8 53.3 62 4.8 40.6 12.18 0.48
15:08 1018 30.06 847 25.01 12 53.6 58 4 39.1 12.36 0.487
15:09 1018 30.06 847 25.01 12.2 54 58 4.2 39.5 12.52 0.493
15:10 1018 30.06 847 25.01 12.2 53.9 51 2.4 36.3 12.44 0.49
15:11 1018 30.06 847 25.01 12.1 53.8 50 2.1 35.7 12.36 0.487
15:12 1018 30.06 847 25.01 12.1 53.8 52 2.6 36.7 12.42 0.489
15:13 1018 30.06 847 25.01 12.1 53.7 55 3.3 37.9 12.36 0.487
15:14 1018 30.06 847 25.01 12 53.7 53 2.8 37 12.32 0.485
15:15 1018 30.06 847 25.01 12 53.6 59 4.3 39.7 12.32 0.485
15:16 1018 30.06 847 25.01 12.1 53.8 56 3.8 38.8 12.5 0.492
15:17 1018 30.06 847 25.01 12.3 54.1 53 3.1 37.6 12.59 0.496
15:18 1018 30.06 847 25.01 12.2 54 55 3.6 38.5 12.53 0.493
15:19 1018 30.06 847 25.01 12.1 53.9 50 2.1 35.8 12.32 0.485
15:20 1018 30.06 847 25.01 12 53.5 58 4 39.2 12.34 0.486
15:21 1018 30.06 847 25.01 12 53.5 53 2.8 37 12.32 0.485
15:22 1018 30.06 847 25.01 11.9 53.5 47 1.2 34.1 12.22 0.481
15:23 1018 30.06 847 25.01 11.9 53.4 45 0.3 32.5 12.21 0.481
15:24 1018 30.06 847 25.01 11.8 53.3 56 3.3 38 12.12 0.477
15:25 1018 30.06 847 25.01 11.9 53.4 55 3.2 37.7 12.15 0.478
15:26 1018 30.06 847 25.01 12 53.6 55 3.4 38.1 12.34 0.486
15:27 1018 30.06 847 25.01 12.2 53.9 58 4.2 39.5 12.56 0.494
15:28 1018 30.06 847 25.01 12.5 54.4 47 1.6 34.9 12.9 0.508
15:29 1018 30.06 847 25.01 12.5 54.5 49 2.2 35.9 12.72 0.501
15:30 1018 30.06 847 25.01 12.4 54.4 56 4.1 39.3 12.62 0.497
15:31 1018 30.06 847 25.01 12.4 54.2 43 0.3 32.6 12.54 0.494
15:32 1018 30.06 847 25.01 12.2 53.9 48 1.6 34.9 12.28 0.483
15:33 1018 30.06 847 25.01 12.2 53.9 56 3.6 38.4 12.49 0.492
15:34 1018 30.06 847 25.01 12.4 54.2 64 5.8 42.4 12.76 0.502
15:35 1018 30.06 847 25.01 12.6 54.7 49 2.3 36.1 13.04 0.513
15:36 1018 30.06 847 25.01 12.7 54.8 47 1.6 35 13.05 0.514
15:37 1018 30.06 847 25.01 12.7 54.9 57 4.5 40 13.1 0.516
15:38 1018 30.06 847 25.01 12.9 55.1 48 2.3 36.2 13.17 0.519
15:39 1018 30.06 847 25.01 12.9 55.1 58 4.8 40.7 12.99 0.511
15:40 1018 30.06 847 25.01 12.9 55.3 48 2.3 36.1 13.13 0.517
15:41 1018 30.06 847 25.01 12.9 55.2 52 3.2 37.8 12.96 0.51
15:42 1018 30.06 847 25.01 12.8 55 49 2.4 36.3 12.86 0.506
15:43 1018 30.06 847 25.01 12.6 54.6 46 1.3 34.3 12.66 0.498
15:44 1018 30.06 847 25.01 12.4 54.3 51 2.7 36.9 12.62 0.497
15:45 1018 30.06 847 25.01 12.4 54.4 44 0.6 33.1 12.71 0.5
15:46 1018 30.06 847 25.01 12.5 54.4 51 2.8 37 12.75 0.502
15:47 1017 30.03 847 25.01 12.5 54.6 55 3.7 38.7 12.84 0.506
15:48 1018 30.06 847 25.01 12.6 54.7 55 3.8 38.9 12.97 0.511
15:49 1017 30.03 847 25.01 12.6 54.7 51 2.9 37.1 12.99 0.511
15:50 1018 30.06 847 25.01 12.6 54.7 54 3.5 38.3 13 0.512
15:51 1018 30.06 847 25.01 12.7 54.9 48 2.1 35.7 13.19 0.519
15:52 1018 30.06 847 25.01 12.8 55 52 3.4 38.1 13.24 0.521
15:53 1018 30.06 847 25.01 12.9 55.3 53 3.6 38.4 13.44 0.529
15:54 1017 30.03 847 25.01 13 55.4 46 1.8 35.3 13.26 0.522
15:55 1017 30.03 847 25.01 12.9 55.2 52 3.4 38.1 13.07 0.515
15:56 1018 30.06 847 25.01 12.7 54.8 49 2.3 36.1 12.9 0.508
15:57 1017 30.03 847 25.01 12.6 54.6 50 2.4 36.3 12.95 0.51
15:58 1017 30.03 847 25.01 12.6 54.6 48 2 35.7 12.8 0.504
15:59 1017 30.03 847 25.01 12.4 54.3 48 1.6 35 12.71 0.5
16:00 1017 30.03 847 25.01 12.5 54.4 52 3 37.4 12.81 0.504
16:01 1017 30.03 847 25.01 12.5 54.5 52 2.9 37.1 12.77 0.503
16:02 1017 30.03 847 25.01 12.5 54.6 44 0.7 33.3 12.72 0.501
16:03 1017 30.03 847 25.01 12.4 54.4 44 0.6 33 12.6 0.496
16:04 1017 30.03 847 25.01 12.4 54.3 50 2.4 36.4 12.63 0.497
16:05 1017 30.03 847 25.01 12.4 54.4 44 0.7 33.3 12.65 0.498
16:06 1017 30.03 847 25.01 12.5 54.5 53 3.2 37.7 12.79 0.504
16:07 1017 30.03 847 25.01 12.6 54.8 45 1.2 34.1 12.92 0.509
16:08 1017 30.03 846 24.98 12.7 54.9 50 2.7 36.9 12.96 0.51
16:09 1017 30.03 846 24.98 12.8 55 49 2.5 36.5 13.11 0.516
16:10 1017 30.03 846 24.98 12.9 55.1 46 1.6 34.9 13.23 0.521
16:11 1017 30.03 846 24.98 13 55.4 49 2.5 36.5 13.24 0.521
16:12 1017 30.03 846 24.98 13 55.4 47 1.9 35.5 13.2 0.52
16:13 1017 30.03 846 24.98 13 55.3 43 0.8 33.5 13.2 0.52
16:14 1017 30.03 846 24.98 12.9 55.3 41 0.2 32.3 13.07 0.515
16:15 1017 30.03 846 24.98 12.8 55 48 2.2 35.9 12.99 0.511
16:16 1017 30.03 846 24.98 12.8 55 45 1.1 34 13.07 0.515
16:17 1017 30.03 846 24.98 12.8 55.1 52 3.2 37.8 13.12 0.517
16:18 1017 30.03 846 24.98 12.9 55.3 45 1.3 34.3 13.27 0.522
16:19 1017 30.03 846 24.98 13 55.3 45 1.5 34.7 13.24 0.521
16:20 1017 30.03 846 24.98 13 55.3 50 2.8 37.1 13.21 0.52
16:21 1017 30.03 846 24.98 13 55.5 50 2.9 37.2 13.27 0.522
16:22 1017 30.03 846 24.98 13.1 55.5 43 0.9 33.6 13.23 0.521
16:23 1017 30.03 846 24.98 13 55.4 47 2 35.5 13.14 0.517
16:24 1017 30.03 846 24.98 12.9 55.2 46 1.6 34.8 13.23 0.521
16:25 1017 30.03 846 24.98 12.9 55.3 45 1.3 34.4 13.4 0.528
16:26 1017 30.03 846 24.98 13.1 55.6 51 3.2 37.7 13.74 0.541
16:27 1017 30.03 846 24.98 13.4 56.1 44 1.4 34.4 14.12 0.556
16:28 1017 30.03 846 24.98 13.6 56.5 45 1.9 35.5 14.24 0.561
16:29 1017 30.03 846 24.98 13.7 56.7 47 2.8 37 14.28 0.562
16:30 1017 30.03 846 24.98 13.8 56.8 51 3.9 38.9 14.19 0.559
16:31 1017 30.03 846 24.98 13.8 56.8 40 0.4 32.7 14.11 0.556
16:32 1017 30.03 846 24.98 13.5 56.4 43 1.2 34.2 13.77 0.542
16:33 1017 30.03 846 24.98 13.4 56.1 41 0.6 33.1 13.62 0.536
16:34 1017 30.03 846 24.98 13.3 55.9 38 -0.6 30.8 13.51 0.532
16:35 1017 30.03 846 24.98 13.2 55.7 47 2.3 36.2 13.43 0.529
16:36 1017 30.03 846 24.98 13.1 55.7 49 2.9 37.2 13.49 0.531
16:37 1017 30.03 846 24.98 13.2 55.8 45 1.5 34.7 13.51 0.532
16:38 1017 30.03 846 24.98 13.2 55.7 45 1.5 34.7 13.48 0.531
16:39 1017 30.03 846 24.98 13.1 55.5 41 0.3 32.5 13.4 0.528
16:40 1017 30.03 846 24.98 13.1 55.6 47 2.2 36 13.5 0.531
16:41 1017 30.03 846 24.98 13.2 55.7 48 2.6 36.6 13.62 0.536
16:42 1017 30.03 846 24.98 13.2 55.8 46 2 35.6 13.64 0.537
16:43 1017 30.03 846 24.98 13.3 55.9 39 -0.4 31.3 13.65 0.537
16:44 1017 30.03 846 24.98 13.3 56 39 -0.3 31.5 13.65 0.537
16:45 1017 30.03 846 24.98 13.3 56 37 -0.8 30.5 13.62 0.536
16:46 1017 30.03 846 24.98 13.2 55.8 41 0.4 32.8 13.59 0.535
16:47 1017 30.03 846 24.98 13.2 55.8 47 2.1 35.8 13.63 0.537
16:48 1017 30.03 846 24.98 13.2 55.8 45 1.5 34.7 13.63 0.537
16:49 1017 30.03 846 24.98 13.2 55.8 47 2.1 35.9 13.66 0.538
16:50 1017 30.03 846 24.98 13.4 56 38 -0.7 30.8 13.82 0.544
16:51 1017 30.03 846 24.98 13.4 56.2 39 -0.1 31.8 13.87 0.546
16:52 1017 30.03 846 24.98 13.5 56.3 47 2.6 36.6 14.04 0.553
16:53 1017 30.03 846 24.98 13.7 56.7 44 1.6 34.9 14.25 0.561
16:54 1017 30.03 846 24.98 13.8 56.8 42 1.2 34.2 14.33 0.564
16:55 1017 30.03 846 24.98 13.8 56.9 39 0.3 32.5 14.4 0.567
16:56 1017 30.03 846 24.98 13.8 56.8 42 1.2 34.2 14.35 0.565
16:57 1017 30.03 846 24.98 13.8 56.8 44 1.7 35.1 14.35 0.565
16:58 1017 30.03 846 24.98 13.8 56.9 45 2.3 36.1 14.45 0.569
16:59 1017 30.03 846 24.98 14 57.1 44 2.1 35.9 14.55 0.573
17:00 1017 30.03 846 24.98 14.2 57.5 39 0.6 33.1 14.54 0.572
17:01 1017 30.03 846 24.98 14.2 57.5 42 1.4 34.5 14.44 0.569
17:02 1017 30.03 846 24.98 14.2 57.5 36 -0.6 31 14.32 0.564
17:03 1017 30.03 846 24.98 14.2 57.6 35 -0.9 30.3 14.28 0.562
17:04 1017 30.03 846 24.98 14.4 57.9 43 2 35.7 14.52 0.572
17:05 1017 30.03 846 24.98 14.4 57.9 41 1.4 34.5 14.68 0.578
17:06 1017 30.03 846 24.98 14.2 57.5 33 -2 28.4 14.54 0.572
17:07 1017 30.03 846 24.98 14 57.2 37 -0.3 31.5 14.41 0.567
17:08 1017 30.03 846 24.98 14.1 57.4 38 -0.1 31.9 14.45 0.569
17:09 1017 30.03 846 24.98 14.1 57.4 34 -1.3 29.7 14.21 0.559
17:10 1017 30.03 846 24.98 13.9 57.1 39 0.4 32.8 14.07 0.554
17:11 1017 30.03 846 24.98 13.8 56.9 41 0.8 33.4 13.97 0.55
17:12 1017 30.03 846 24.98 13.7 56.7 39 -0 31.9 13.89 0.547
17:13 1017 30.03 846 24.98 13.6 56.4 37 -0.8 30.5 13.74 0.541
17:14 1017 30.03 846 24.98 13.5 56.3 35 -1.6 29.1 13.77 0.542
17:15 1017 30.03 846 24.98 13.6 56.4 44 1.7 35 13.79 0.543
17:16 1017 30.03 846 24.98 13.7 56.6 41 0.8 33.5 13.92 0.548
17:17 1017 30.03 846 24.98 13.7 56.7 43 1.3 34.3 13.97 0.55
17:18 1017 30.03 846 24.98 13.9 57 43 1.5 34.7 14.16 0.557
17:19 1017 30.03 846 24.98 14 57.1 41 1.1 34.1 14.31 0.563
17:20 1017 30.03 846 24.98 14.1 57.3 45 2.3 36.1 14.3 0.563
17:21 1017 30.03 846 24.98 14 57.2 42 1.5 34.7 14.24 0.561
17:22 1017 30.03 846 24.98 14 57.2 37 -0.4 31.2 14.27 0.562
17:23 1017 30.03 846 24.98 14 57.2 40 0.6 33 14.2 0.559
17:24 1017 30.03 846 24.98 14 57.1 44 2.1 35.8 14.11 0.556
17:25 1017 30.03 846 24.98 14 57.1 40 0.7 33.3 14.11 0.556
17:26 1017 30.03 846 24.98 14 57.2 40 0.7 33.3 14.2 0.559
17:27 1017 30.03 846 24.98 14 57.2 42 1.3 34.4 14.24 0.561
17:28 1017 30.03 846 24.98 14.1 57.4 46 2.7 36.8 14.25 0.561
17:29 1017 30.03 846 24.98 14.1 57.4 43 1.8 35.2 14.26 0.561
17:30 1017 30.03 846 24.98 14.1 57.4 32 -2.1 28.2 14.15 0.557
17:31 1017 30.03 846 24.98 13.9 57 36 -0.8 30.6 13.88 0.546
17:32 1017 30.03 846 24.98 13.8 56.8 42 1 33.9 13.95 0.549
17:33 1017 30.03 846 24.98 13.8 56.8 37 -0.4 31.2 14.08 0.554
17:34 1017 30.03 846 24.98 13.8 56.9 36 -1.1 30 14.22 0.56
17:35 1017 30.03 846 24.98 13.9 57 36 -0.7 30.8 14.4 0.567
17:36 1017 30.03 846 24.98 14.1 57.3 38 0 32.1 14.54 0.572
17:37 1017 30.03 846 24.98 14.2 57.6 35 -1 30.2 14.66 0.577
17:38 1017 30.03 846 24.98 14.3 57.7 43 1.8 35.3 14.78 0.582
17:39 1017 30.03 846 24.98 14.3 57.8 34 -1.2 29.8 14.78 0.582
17:40 1017 30.03 846 24.98 14.3 57.7 35 -0.7 30.7 14.71 0.579
17:41 1017 30.03 846 24.98 14.3 57.7 43 2 35.6 14.68 0.578
17:42 1017 30.03 846 24.98 14.4 57.8 33 -1.5 29.3 14.7 0.579
17:43 1017 30.03 846 24.98 14.4 57.9 38 0.5 32.9 14.64 0.576
17:44 1017 30.03 846 24.98 14.5 58.1 35 -0.5 31.1 14.74 0.58
17:45 1017 30.03 846 24.98 14.5 58.1 36 -0.2 31.6 14.89 0.586
17:46 1017 30.03 846 24.98 14.6 58.3 32 -1.9 28.7 15.06 0.593
17:47 1017 30.03 846 24.98 14.7 58.4 33 -1.3 29.7 15.13 0.596
17:48 1017 30.03 846 24.98 14.7 58.4 35 -0.4 31.3 15.11 0.595
17:49 1017 30.03 846 24.98 14.7 58.4 37 0.2 32.4 15.09 0.594
17:50 1017 30.03 846 24.98 14.6 58.4 32 -1.8 28.7 14.95 0.589
17:51 1017 30.03 846 24.98 14.6 58.2 32 -1.8 28.7 14.8 0.583
17:52 1017 30.03 846 24.98 14.4 57.8 43 2 35.6 14.78 0.582
17:53 1017 30.03 846 24.98 14.3 57.8 32 -2.2 28 14.81 0.583
17:54 1017 30.03 846 24.98 14.4 57.8 33 -1.4 29.4 14.94 0.588
17:55 1017 30.03 846 24.98 14.5 58 34 -1.3 29.6 15.03 0.592
17:56 1017 30.03 846 24.98 14.5 58.1 31 -2.5 27.6 15.09 0.594
17:57 1017 30.03 846 24.98 14.7 58.4 30 -2.5 27.6 15.16 0.597
17:58 1017 30.03 846 24.98 14.9 58.8 32 -1.7 28.9 15.41 0.607
17:59 1017 30.03 846 24.98 15.2 59.3 37 0.8 33.5 15.59 0.614
18:00 1017 30.03 846 24.98 15.3 59.5 32 -1.4 29.4 15.64 0.616
18:01 1017 30.03 846 24.98 15.3 59.6 30 -2 28.5 15.77 0.621
18:02 1017 30.03 846 24.98 15.3 59.5 40 1.8 35.3 15.91 0.626
18:03 1017 30.03 846 24.98 15.3 59.5 35 -0.1 31.8 15.99 0.63
18:04 1017 30.03 846 24.98 15 59 33 -1.2 29.9 15.73 0.619
18:05 1017 30.03 846 24.98 14.8 58.6 37 0.4 32.8 15.3 0.602
18:06 1017 30.03 846 24.98 14.8 58.6 40 1.4 34.5 15.05 0.593
18:07 1017 30.03 846 24.98 14.8 58.6 36 0 32 14.92 0.587
18:08 1017 30.03 846 24.98 14.8 58.6 37 0.2 32.4 14.98 0.59
18:09 1017 30.03 846 24.98 14.8 58.7 33 -1.1 30.1 14.96 0.589
18:10 1017 30.03 846 24.98 14.9 58.7 34 -0.8 30.5 14.94 0.588
18:11 1017 30.03 846 24.98 14.7 58.5 30 -2.7 27.2 14.67 0.578
18:12 1017 30.03 846 24.98 14.4 57.9 39 0.8 33.4 14.63 0.576
18:13 1017 30.03 846 24.98 14.3 57.8 34 -1.2 29.9 14.71 0.579
18:14 1017 30.03 846 24.98 14.3 57.8 33 -1.6 29.1 14.69 0.578
18:15 1017 30.03 846 24.98 14.3 57.7 35 -1 30.1 14.61 0.575
18:16 1017 30.03 846 24.98 14.2 57.6 37 -0.1 31.8 14.62 0.576
18:17 1017 30.03 846 24.98 14.3 57.7 32 -2.1 28.1 14.53 0.572
18:18 1017 30.03 846 24.98 14.2 57.6 34 -1.5 29.4 14.39 0.567
18:19 1017 30.03 846 24.98 14.2 57.5 36 -0.5 31.1 14.2 0.559
18:20 1017 30.03 846 24.98 14.1 57.3 38 0 32 14.22 0.56
18:21 1017 30.03 846 24.98 14.1 57.3 35 -1.2 29.8 14.29 0.563
18:22 1017 30.03 846 24.98 14.2 57.5 42 1.5 34.8 14.38 0.566
18:23 1017 30.03 846 24.98 14.3 57.7 41 1.2 34.1 14.46 0.569
18:24 1017 30.03 846 24.98 14.3 57.7 42 1.8 35.2 14.44 0.569
18:25 1017 30.03 846 24.98 14.3 57.7 40 0.9 33.7 14.38 0.566
18:26 1017 30.03 846 24.98 14.2 57.5 35 -1 30.2 14.3 0.563
18:27 1017 30.03 846 24.98 14 57.2 37 -0.6 31 14.09 0.555
18:28 1017 30.03 846 24.98 13.8 56.9 32 -2.3 27.8 13.96 0.55
18:29 1017 30.03 846 24.98 13.7 56.7 39 0.1 32.1 13.9 0.547
18:30 1017 30.03 846 24.98 13.6 56.5 42 1 33.7 13.83 0.544
18:31 1017 30.03 846 24.98 13.5 56.3 33 -2.2 28 13.76 0.542
18:32 1017 30.03 846 24.98 13.5 56.2 42 0.9 33.6 13.73 0.541
18:33 1017 30.03 846 24.98 13.5 56.2 44 1.5 34.7 13.76 0.542
18:34 1017 30.03 846 24.98 13.5 56.2 36 -1.2 29.9 13.74 0.541
18:35 1017 30.03 846 24.98 13.4 56 34 -2.1 28.2 13.56 0.534
18:36 1017 30.03 846 24.98 13.3 56 43 1.1 34 13.51 0.532
18:37 1017 30.03 846 24.98 13.3 56 42 0.8 33.4 13.61 0.536
18:38 1017 30.03 846 24.98 13.4 56.1 36 -1.4 29.6 13.65 0.537
18:39 1016 30 846 24.98 13.4 56.1 41 0.6 33.1 13.56 0.534
18:40 1016 30 846 24.98 13.4 56.1 43 1.1 33.9 13.67 0.538
18:41 1016 30 846 24.98 13.5 56.2 42 1 33.8 13.67 0.538
18:42 1017 30.03 846 24.98 13.5 56.3 35 -1.5 29.3 13.71 0.54
18:43 1016 30 846 24.98 13.5 56.2 36 -1.1 30 13.76 0.542
18:44 1017 30.03 846 24.98 13.6 56.4 43 1.2 34.1 13.89 0.547
18:45 1017 30.03 846 24.98 13.6 56.5 39 -0.1 31.8 13.94 0.549
18:46 1017 30.03 846 24.98 13.6 56.6 39 0.1 32.1 13.94 0.549
18:47 1016 30 846 24.98 13.7 56.6 33 -2.1 28.3 13.85 0.545
18:48 1016 30 846 24.98 13.7 56.6 39 0.2 32.4 13.83 0.544
18:49 1016 30 846 24.98 13.9 57 33 -2 28.5 14.07 0.554
18:50 1016 30 846 24.98 14 57.2 39 0.2 32.4 14.24 0.561
18:51 1016 30 846 24.98 13.9 57.1 33 -2 28.5 14.29 0.563
18:52 1016 30 846 24.98 13.9 57 33 -1.9 28.6 14.25 0.561
18:53 1016 30 846 24.98 13.8 56.9 32 -2.5 27.4 14.27 0.562
18:54 1016 30 846 24.98 13.8 56.9 37 -0.6 30.9 14.36 0.565
18:55 1016 30 846 24.98 14 57.2 39 0.5 32.9 14.42 0.568
18:56 1016 30 846 24.98 14 57.2 33 -2 28.4 14.34 0.565
18:57 1016 30 846 24.98 14 57.2 39 0.4 32.7 14.27 0.562
18:58 1016 30 846 24.98 13.9 57.1 43 1.7 35.1 14.24 0.561
18:59 1016 30 846 24.98 13.9 56.9 36 -1.1 30.1 14.07 0.554
19:00 1016 30 846 24.98 13.8 56.8 35 -1.4 29.5 14.02 0.552
19:01 1016 30 846 24.98 13.8 56.8 36 -1.1 30.1 14 0.551
19:02 1016 30 846 24.98 13.7 56.7 41 0.7 33.2 13.94 0.549
19:03 1016 30 846 24.98 13.6 56.5 38 -0.5 31.2 13.84 0.545
19:04 1016 30 846 24.98 13.5 56.2 40 0.1 32.2 13.72 0.54
19:05 1016 30 846 24.98 13.3 55.9 46 1.9 35.4 13.59 0.535
19:06 1016 30 846 24.98 13.1 55.6 45 1.6 34.8 13.47 0.53
19:07 1016 30 846 24.98 13 55.3 38 -1 30.2 13.32 0.524
19:08 1016 30 846 24.98 12.9 55.2 40 -0.3 31.5 13.21 0.52
19:09 1016 30 846 24.98 12.9 55.2 42 0.3 32.5 13.25 0.522
19:10 1016 30 846 24.98 13 55.4 44 1.2 34.2 13.41 0.528
19:11 1016 30 846 24.98 13.1 55.5 46 1.8 35.3 13.55 0.533
19:12 1016 30 846 24.98 13.1 55.6 45 1.4 34.5 13.62 0.536
19:13 1016 30 846 24.98 13.1 55.5 44 1.3 34.3 13.47 0.53
19:14 1016 30 846 24.98 13 55.4 43 0.7 33.3 13.28 0.523
19:15 1016 30 846 24.98 13 55.4 37 -1.2 29.8 13.25 0.522
19:16 1016 30 846 24.98 13 55.4 36 -1.5 29.3 13.24 0.521
19:17 1016 30 846 24.98 13 55.5 39 -0.5 31.1 13.25 0.522
19:18 1016 30 846 24.98 13.1 55.5 41 0.2 32.4 13.35 0.526
19:19 1016 30 846 24.98 13.1 55.6 39 -0.3 31.4 13.43 0.529
19:20 1017 30.03 846 24.98 13.2 55.7 38 -0.9 30.4 13.47 0.53
19:21 1016 30 846 24.98 13.2 55.7 40 0.1 32.1 13.46 0.53
19:22 1017 30.03 846 24.98 13.1 55.6 38 -1 30.2 13.41 0.528
19:23 1017 30.03 846 24.98 13 55.4 42 0.5 32.9 13.25 0.522
19:24 1017 30.03 846 24.98 12.9 55.1 35 -2.3 27.8 13.09 0.515
19:25 1017 30.03 846 24.98 12.7 54.9 41 -0.3 31.5 13.01 0.512
19:26 1017 30.03 846 24.98 12.6 54.7 40 -0.4 31.3 12.91 0.508
19:27 1017 30.03 846 24.98 12.5 54.5 47 1.4 34.6 12.81 0.504
19:28 1017 30.03 846 24.98 12.4 54.2 53 3 37.4 12.7 0.5
19:29 1017 30.03 846 24.98 12.1 53.8 56 3.6 38.5 12.49 0.492
19:30 1017 30.03 846 24.98 12 53.5 57 3.8 38.8 12.33 0.485
19:31 1017 30.03 846 24.98 11.8 53.2 58 3.8 38.9 12.22 0.481
19:32 1017 30.03 846 24.98 11.7 53.1 58 3.9 39 12.18 0.48
19:33 1017 30.03 846 24.98 11.7 53 60 4.2 39.5 12.16 0.479
19:34 1017 30.03 846 24.98 11.7 53.1 59 3.9 39.1 12.11 0.477
19:35 1017 30.03 846 24.98 11.7 53 57 3.6 38.4 12.1 0.476
19:36 1017 30.03 846 24.98 11.7 53 57 3.6 38.4 12.03 0.474
19:37 1017 30.03 846 24.98 11.6 52.9 56 3.1 37.6 12.03 0.474
19:38 1017 30.03 846 24.98 11.6 52.9 58 3.7 38.6 11.98 0.472
19:39 1017 30.03 846 24.98 11.6 52.8 58 3.5 38.3 11.97 0.471
19:40 1017 30.03 846 24.98 11.5 52.7 59 3.8 38.9 11.92 0.469
19:41 1017 30.03 846 24.98 11.5 52.7 60 4.1 39.3 11.87 0.467
19:42 1017 30.03 846 24.98 11.4 52.5 59 3.8 38.9 11.79 0.464
19:43 1017 30.03 846 24.98 11.4 52.4 60 3.9 39 11.72 0.461
19:44 1017 30.03 846 24.98 11.3 52.4 59 3.6 38.5 11.71 0.461
19:45 1017 30.03 846 24.98 11.3 52.3 58 3.3 38 11.61 0.457
19:46 1017 30.03 846 24.98 11.1 52 59 3.5 38.3 11.51 0.453
19:47 1017 30.03 846 24.98 11.1 51.9 61 3.9 39 11.46 0.451
19:48 1017 30.03 846 24.98 11 51.9 60 3.7 38.6 11.43 0.45
19:49 1017 30.03 846 24.98 11 51.8 59 3.3 38 11.4 0.449
19:50 1017 30.03 846 24.98 11 51.7 58 3 37.4 11.37 0.448
19:51 1017 30.03 846 24.98 10.9 51.7 60 3.4 38.2 11.34 0.446
19:52 1017 30.03 846 24.98 10.9 51.7 61 3.7 38.7 11.32 0.446
19:53 1017 30.03 846 24.98 10.9 51.5 60 3.4 38.2 11.25 0.443
19:54 1017 30.03 846 24.98 10.8 51.5 59 3.2 37.7 11.23 0.442
19:55 1017 30.03 846 24.98 10.9 51.5 59 3.1 37.6 11.2 0.441
19:56 1017 30.03 846 24.98 10.8 51.4 59 3.2 37.8 11.19 0.441
19:57 1017 30.03 846 24.98 10.7 51.3 61 3.5 38.3 11.15 0.439
19:58 1017 30.03 846 24.98 10.7 51.3 61 3.6 38.4 11.1 0.437
19:59 1017 30.03 846 24.98 10.7 51.2 60 3.2 37.8 11.05 0.435
20:00 1017 30.03 846 24.98 10.7 51.3 60 3.3 38 11.14 0.439
20:01 1017 30.03 846 24.98 10.7 51.2 60 3.3 37.9 11.08 0.436
20:02 1017 30.03 846 24.98 10.6 51.2 60 3.3 37.9 11.01 0.433
20:03 1017 30.03 846 24.98 10.6 51.1 61 3.4 38.1 10.96 0.431
20:04 1017 30.03 846 24.98 10.6 51 61 3.5 38.2 10.96 0.431
20:05 1017 30.03 846 24.98 10.6 51 61 3.5 38.3 10.92 0.43
20:06 1017 30.03 846 24.98 10.5 50.9 61 3.3 37.9 10.94 0.431
20:07 1017 30.03 846 24.98 10.5 50.8 63 3.7 38.6 10.88 0.428
20:08 1017 30.03 846 24.98 10.5 50.9 63 3.9 38.9 10.86 0.428
20:09 1017 30.03 846 24.98 10.4 50.7 62 3.6 38.4 10.82 0.426
20:10 1017 30.03 846 24.98 10.4 50.7 62 3.4 38.2 10.77 0.424
20:11 1017 30.03 846 24.98 10.3 50.6 63 3.6 38.4 10.7 0.421
20:12 1017 30.03 846 24.98 10.3 50.5 64 3.7 38.7 10.69 0.421
20:13 1017 30.03 846 24.98 10.3 50.5 63 3.5 38.3 10.66 0.42
20:14 1017 30.03 846 24.98 10.3 50.5 62 3.4 38.2 10.61 0.418
20:15 1017 30.03 846 24.98 10.2 50.4 62 3.3 37.9 10.58 0.417
20:16 1017 30.03 846 24.98 10.2 50.3 62 3.3 38 10.55 0.415
20:17 1017 30.03 846 24.98 10.1 50.2 63 3.4 38.2 10.51 0.414
20:18 1017 30.03 846 24.98 10.2 50.3 63 3.5 38.3 10.51 0.414
20:19 1017 30.03 846 24.98 10.1 50.2 63 3.4 38 10.45 0.411
20:20 1017 30.03 846 24.98 10.1 50.1 64 3.5 38.3 10.49 0.413
20:21 1017 30.03 846 24.98 10 50.1 63 3.4 38.1 10.41 0.41
20:22 1017 30.03 846 24.98 10 49.9 64 3.5 38.3 10.34 0.407
20:23 1017 30.03 846 24.98 9.9 49.8 64 3.5 38.3 10.27 0.404
20:24 1017 30.03 846 24.98 9.9 49.8 65 3.6 38.6 10.26 0.404
20:25 1017 30.03 846 24.98 9.9 49.7 66 3.8 38.8 10.24 0.403
20:26 1017 30.03 846 24.98 9.8 49.7 64 3.4 38.2 10.23 0.403
20:27 1017 30.03 846 24.98 9.8 49.7 64 3.5 38.2 10.22 0.402
20:28 1017 30.03 846 24.98 9.8 49.7 65 3.6 38.4 10.19 0.401
20:29 1017 30.03 846 24.98 9.8 49.7 63 3.2 37.8 10.2 0.402
20:30 1017 30.03 846 24.98 9.8 49.6 63 3.2 37.8 10.18 0.401
20:31 1017 30.03 846 24.98 9.7 49.5 63 3.2 37.7 10.14 0.399
20:32 1017 30.03 846 24.98 9.7 49.5 64 3.3 38 10.07 0.396
20:33 1017 30.03 846 24.98 9.7 49.4 65 3.4 38.1 10.06 0.396
20:34 1017 30.03 846 24.98 9.6 49.3 66 3.6 38.5 10.04 0.395
20:35 1017 30.03 846 24.98 9.6 49.2 64 3.1 37.6 9.98 0.393
20:36 1017 30.03 846 24.98 9.5 49.1 65 3.2 37.8 9.91 0.39
20:37 1017 30.03 846 24.98 9.4 49 65 3.1 37.7 9.85 0.388
20:38 1017 30.03 846 24.98 9.4 48.9 67 3.5 38.3 9.81 0.386
20:39 1017 30.03 846 24.98 9.3 48.8 64 3 37.4 9.74 0.383
20:40 1017 30.03 846 24.98 9.3 48.8 64 2.8 37.1 9.75 0.384
20:41 1017 30.03 846 24.98 9.4 48.8 66 3.4 38.1 9.71 0.382
20:42 1017 30.03 846 24.98 9.3 48.7 65 3.1 37.6 9.71 0.382
20:43 1017 30.03 846 24.98 9.3 48.7 66 3.3 37.9 9.71 0.382
20:44 1017 30.03 846 24.98 9.2 48.6 66 3.3 37.9 9.63 0.379
20:45 1017 30.03 846 24.98 9.2 48.5 66 3.2 37.8 9.61 0.378
20:46 1017 30.03 846 24.98 9.2 48.5 66 3.1 37.6 9.59 0.378
20:47 1017 30.03 846 24.98 9.1 48.4 67 3.3 37.9 9.54 0.376
20:48 1017 30.03 846 24.98 9.1 48.4 67 3.3 37.9 9.52 0.375
20:49 1017 30.03 846 24.98 9.1 48.4 67 3.3 38 9.5 0.374
20:50 1017 30.03 846 24.98 9.1 48.3 66 3.1 37.5 9.46 0.372
20:51 1017 30.03 846 24.98 9 48.2 67 3.3 37.9 9.45 0.372
20:52 1017 30.03 846 24.98 9 48.2 67 3.3 37.9 9.4 0.37
20:53 1017 30.03 846 24.98 8.9 48.1 67 3.2 37.7 9.35 0.368
20:54 1017 30.03 846 24.98 8.9 48 67 3.2 37.8 9.33 0.367
20:55 1017 30.03 846 24.98 8.9 48 68 3.3 38 9.29 0.366
20:56 1017 30.03 846 24.98 8.9 48 68 3.4 38.1 9.27 0.365
20:57 1017 30.03 846 24.98 8.8 47.8 67 3.1 37.6 9.21 0.363
20:58 1017 30.03 846 24.98 8.8 47.8 68 3.2 37.8 9.24 0.364
20:59 1017 30.03 846 24.98 8.8 47.8 68 3.2 37.8 9.2 0.362
21:00 1017 30.03 846 24.98 8.8 47.8 68 3.2 37.7 9.19 0.362
21:01 1017 30.03 846 24.98 8.8 47.8 69 3.3 38 9.16 0.361
21:02 1017 30.03 846 24.98 8.7 47.7 69 3.3 38 9.08 0.357
21:03 1017 30.03 846 24.98 8.7 47.6 69 3.3 38 9.05 0.356
21:04 1017 30.03 846 24.98 8.6 47.5 69 3.3 38 9.03 0.356
21:05 1017 30.03 846 24.98 8.6 47.5 70 3.4 38.2 9.01 0.355
21:06 1017 30.03 846 24.98 8.5 47.4 69 3.2 37.7 8.96 0.353
21:07 1017 30.03 846 24.98 8.6 47.4 69 3.3 37.9 8.96 0.353
21:08 1017 30.03 846 24.98 8.6 47.4 70 3.3 38 8.97 0.353
21:09 1017 30.03 846 24.98 8.5 47.3 70 3.3 38 8.9 0.35
21:10 1017 30.03 846 24.98 8.5 47.3 70 3.3 37.9 8.88 0.35
21:11 1017 30.03 846 24.98 8.5 47.2 70 3.3 38 8.83 0.348
21:12 1017 30.03 846 24.98 8.4 47.2 71 3.5 38.2 8.78 0.346
21:13 1017 30.03 846 24.98 8.4 47.1 70 3.3 37.9 8.71 0.343
21:14 1017 30.03 846 24.98 8.4 47 70 3.2 37.7 8.75 0.344
21:15 1017 30.03 846 24.98 8.4 47 70 3.3 37.9 8.75 0.344
21:16 1017 30.03 846 24.98 8.3 47 71 3.4 38.1 8.7 0.343
21:17 1017 30.03 846 24.98 8.3 46.9 71 3.3 38 8.67 0.341
21:18 1017 30.03 846 24.98 8.2 46.8 71 3.3 38 8.64 0.34
21:19 1017 30.03 846 24.98 8.2 46.8 71 3.2 37.8 8.59 0.338
21:20 1017 30.03 846 24.98 8.2 46.8 71 3.2 37.8 8.65 0.341
21:21 1017 30.03 846 24.98 8.3 46.9 71 3.3 37.9 8.61 0.339
21:22 1017 30.03 846 24.98 8.3 46.9 71 3.3 38 8.6 0.339
21:23 1017 30.03 846 24.98 8.2 46.8 71 3.3 38 8.6 0.339
21:24 1017 30.03 846 24.98 8.2 46.7 71 3.3 37.9 8.55 0.337
21:25 1017 30.03 846 24.98 8.1 46.6 71 3.1 37.6 8.52 0.335
21:26 1017 30.03 846 24.98 8.2 46.7 70 3.1 37.6 8.52 0.335
21:27 1017 30.03 846 24.98 8.2 46.7 71 3.2 37.7 8.52 0.335
21:28 1017 30.03 846 24.98 8.2 46.7 71 3.2 37.8 8.55 0.337
21:29 1017 30.03 846 24.98 8.1 46.5 70 3 37.4 8.51 0.335
21:30 1017 30.03 846 24.98 8.1 46.6 70 3 37.3 8.5 0.335
21:31 1017 30.03 846 24.98 8.1 46.6 70 3 37.3 8.52 0.335
21:32 1017 30.03 846 24.98 8.1 46.6 69 2.7 36.9 8.53 0.336
21:33 1017 30.03 846 24.98 8.1 46.7 69 2.9 37.2 8.52 0.335
21:34 1017 30.03 846 24.98 8.1 46.6 70 2.9 37.3 8.51 0.335
21:35 1017 30.03 846 24.98 8.1 46.6 69 2.9 37.1 8.51 0.335
21:36 1017 30.03 846 24.98 8.1 46.6 70 2.9 37.2 8.45 0.333
21:37 1017 30.03 846 24.98 8 46.4 69 2.8 37 8.42 0.331
21:38 1017 30.03 846 24.98 8.1 46.5 70 3 37.4 8.46 0.333
21:39 1017 30.03 846 24.98 8 46.4 69 2.8 37 8.42 0.331
21:40 1017 30.03 846 24.98 8 46.4 69 2.8 37 8.42 0.331
21:41 1017 30.03 846 24.98 8 46.4 70 2.9 37.3 8.41 0.331
21:42 1017 30.03 846 24.98 8 46.3 70 2.8 37 8.37 0.33
21:43 1017 30.03 846 24.98 8 46.4 70 2.8 37.1 8.34 0.328
21:44 1017 30.03 846 24.98 7.9 46.3 70 2.8 37 8.33 0.328
21:45 1017 30.03 846 24.98 7.9 46.2 69 2.7 36.8 8.31 0.327
21:46 1017 30.03 846 24.98 7.9 46.3 69 2.6 36.7 8.3 0.327
21:47 1017 30.03 846 24.98 7.9 46.3 69 2.6 36.7 8.32 0.328
21:48 1017 30.03 846 24.98 7.9 46.3 70 2.8 37 8.31 0.327
21:49 1017 30.03 846 24.98 7.9 46.1 70 2.8 37 8.26 0.325
21:50 1017 30.03 846 24.98 7.8 46 70 2.7 36.9 8.19 0.322
21:51 1017 30.03 846 24.98 7.8 46.1 70 2.7 36.9 8.2 0.323
21:52 1017 30.03 846 24.98 7.8 46.1 70 2.7 36.9 8.18 0.322
21:53 1017 30.03 846 24.98 7.8 46.1 70 2.7 36.9 8.2 0.323
21:54 1017 30.03 846 24.98 7.8 46 71 2.8 37.1 8.19 0.322
21:55 1017 30.03 846 24.98 7.7 45.9 71 2.8 37 8.11 0.319
21:56 1017 30.03 846 24.98 7.6 45.8 71 2.8 37 8.08 0.318
21:57 1017 30.03 846 24.98 7.7 45.8 71 2.8 37.1 8.07 0.318
21:58 1017 30.03 846 24.98 7.7 45.8 71 2.7 36.8 8.06 0.317
21:59 1017 30.03 846 24.98 7.7 45.8 71 2.7 36.9 8.09 0.319
22:00 1017 30.03 846 24.98 7.7 45.9 71 2.8 37.1 8.06 0.317
22:01 1017 30.03 846 24.98 7.7 45.8 71 2.8 37 8.09 0.319
22:02 1017 30.03 846 24.98 7.7 45.8 71 2.7 36.9 8.04 0.317
22:03 1017 30.03 846 24.98 7.7 45.9 70 2.7 36.8 8.1 0.319
22:04 1017 30.03 846 24.98 7.7 45.9 71 2.8 37.1 8.11 0.319
22:05 1017 30.03 846 24.98 7.7 45.9 71 2.8 37 8.12 0.32
22:06 1017 30.03 846 24.98 7.7 45.8 71 2.8 37.1 8.08 0.318
22:07 1017 30.03 846 24.98 7.7 45.8 71 2.8 37.1 8.08 0.318
22:08 1017 30.03 847 25.01 7.7 45.8 72 3 37.3 8.03 0.316
22:09 1017 30.03 846 24.98 7.6 45.7 72 2.9 37.2 7.95 0.313
22:10 1017 30.03 847 25.01 7.6 45.6 72 2.8 37.1 7.96 0.313
22:11 1017 30.03 847 25.01 7.6 45.6 72 2.9 37.3 7.97 0.314
22:12 1017 30.03 847 25.01 7.6 45.6 73 3 37.4 7.94 0.313
22:13 1017 30.03 847 25.01 7.5 45.6 72 2.8 37 7.92 0.312
22:14 1017 30.03 847 25.01 7.6 45.6 73 3 37.4 7.98 0.314
22:15 1017 30.03 846 24.98 7.6 45.7 73 3 37.4 8 0.315
22:16 1017 30.03 847 25.01 7.6 45.6 72 2.9 37.2 8 0.315
22:17 1017 30.03 846 24.98 7.6 45.7 73 3 37.5 7.99 0.315
22:18 1017 30.03 846 24.98 7.6 45.6 73 3 37.4 7.96 0.313
22:19 1017 30.03 846 24.98 7.6 45.7 73 3 37.4 7.95 0.313
22:20 1017 30.03 846 24.98 7.6 45.6 72 2.9 37.2 7.95 0.313
22:21 1017 30.03 846 24.98 7.6 45.6 73 3 37.4 7.98 0.314
22:22 1017 30.03 847 25.01 7.6 45.6 73 3.1 37.5 7.92 0.312
22:23 1017 30.03 846 24.98 7.5 45.5 73 3 37.4 7.9 0.311
22:24 1017 30.03 846 24.98 7.5 45.5 73 3 37.4 7.87 0.31
22:25 1017 30.03 846 24.98 7.5 45.5 74 3.1 37.6 7.9 0.311
22:26 1017 30.03 846 24.98 7.4 45.4 74 3 37.5 7.84 0.309
22:27 1017 30.03 846 24.98 7.4 45.3 74 3.1 37.5 7.81 0.307
22:28 1017 30.03 847 25.01 7.4 45.3 74 3.1 37.5 7.77 0.306
22:29 1017 30.03 847 25.01 7.4 45.3 75 3.2 37.8 7.78 0.306
22:30 1017 30.03 847 25.01 7.3 45.2 75 3.1 37.6 7.73 0.304
22:31 1017 30.03 847 25.01 7.3 45.1 75 3.2 37.7 7.69 0.303
22:32 1017 30.03 847 25.01 7.3 45.1 75 3.1 37.5 7.66 0.302
22:33 1017 30.03 847 25.01 7.3 45.1 74 3.1 37.5 7.67 0.302
22:34 1017 30.03 847 25.01 7.3 45.1 74 3 37.5 7.7 0.303
22:35 1017 30.03 847 25.01 7.3 45.1 75 3.1 37.6 7.65 0.301
22:36 1017 30.03 847 25.01 7.3 45.1 74 3.1 37.5 7.68 0.302
22:37 1017 30.03 847 25.01 7.3 45.1 74 3 37.3 7.67 0.302
22:38 1017 30.03 847 25.01 7.3 45.1 75 3.1 37.6 7.69 0.303
22:39 1017 30.03 847 25.01 7.3 45.1 75 3.1 37.6 7.66 0.302
22:40 1017 30.03 847 25.01 7.3 45.1 75 3.2 37.7 7.62 0.3
22:41 1017 30.03 847 25.01 7.2 45 75 3.1 37.6 7.6 0.299
22:42 1017 30.03 847 25.01 7.2 44.9 75 3.1 37.5 7.59 0.299
22:43 1017 30.03 847 25.01 7.2 44.9 75 3 37.5 7.55 0.297
22:44 1017 30.03 847 25.01 7.1 44.8 74 2.9 37.2 7.59 0.299
22:45 1017 30.03 847 25.01 7.2 44.9 74 2.9 37.3 7.55 0.297
22:46 1017 30.03 847 25.01 7.2 45 75 3 37.5 7.55 0.297
22:47 1017 30.03 847 25.01 7.2 44.9 75 3 37.5 7.56 0.298
22:48 1017 30.03 847 25.01 7.1 44.9 75 3.1 37.5 7.54 0.297
22:49 1017 30.03 847 25.01 7.1 44.7 76 3.1 37.5 7.49 0.295
22:50 1017 30.03 847 25.01 7.1 44.7 75 3 37.4 7.47 0.294
22:51 1017 30.03 847 25.01 7.1 44.7 75 2.9 37.3 7.47 0.294
22:52 1017 30.03 847 25.01 7.1 44.7 75 2.9 37.2 7.48 0.294
22:53 1017 30.03 847 25.01 7.1 44.7 75 3 37.3 7.48 0.294
22:54 1017 30.03 847 25.01 7.1 44.7 75 3 37.3 7.47 0.294
22:55 1017 30.03 847 25.01 7.1 44.7 75 3 37.4 7.43 0.293
22:56 1017 30.03 847 25.01 7 44.6 75 3 37.4 7.43 0.293
22:57 1017 30.03 847 25.01 7 44.6 76 3 37.5 7.41 0.292
22:58 1017 30.03 847 25.01 7 44.6 76 3.1 37.6 7.38 0.291
22:59 1017 30.03 847 25.01 7 44.5 76 3.1 37.5 7.37 0.29
23:00 1017 30.03 847 25.01 7 44.5 76 3.1 37.6 7.32 0.288
23:01 1017 30.03 847 25.01 6.9 44.5 76 3 37.4 7.27 0.286
23:02 1017 30.03 847 25.01 6.9 44.5 77 3.1 37.6 7.33 0.289
23:03 1017 30.03 847 25.01 6.9 44.3 77 3.1 37.6 7.27 0.286
23:04 1017 30.03 847 25.01 6.8 44.3 77 3.1 37.6 7.19 0.283
23:05 1017 30.03 847 25.01 6.8 44.2 77 3 37.5 7.17 0.282
23:06 1017 30.03 847 25.01 6.8 44.2 77 3 37.4 7.19 0.283
23:07 1017 30.03 847 25.01 6.8 44.3 77 3 37.5 7.22 0.284
23:08 1017 30.03 847 25.01 6.8 44.3 76 3 37.3 7.22 0.284
23:09 1017 30.03 847 25.01 6.8 44.3 77 3 37.5 7.2 0.283
23:10 1017 30.03 846 24.98 6.8 44.3 77 3 37.4 7.17 0.282
23:11 1017 30.03 846 24.98 6.8 44.3 77 3 37.5 7.18 0.283
23:12 1017 30.03 846 24.98 6.8 44.2 77 3 37.4 7.18 0.283
23:13 1017 30.03 846 24.98 6.8 44.2 77 3 37.4 7.17 0.282
23:14 1017 30.03 846 24.98 6.7 44.1 77 3 37.3 7.15 0.281
23:15 1017 30.03 846 24.98 6.8 44.2 77 2.9 37.3 7.13 0.281
23:16 1017 30.03 846 24.98 6.7 44.1 77 3 37.4 7.15 0.281
23:17 1017 30.03 846 24.98 6.8 44.2 77 3 37.4 7.12 0.28
23:18 1017 30.03 846 24.98 6.7 44.1 77 3 37.4 7.1 0.28
23:19 1017 30.03 846 24.98 6.7 44.1 78 3.1 37.5 7.09 0.279
23:20 1017 30.03 846 24.98 6.7 44 77 2.9 37.2 7.1 0.28
23:21 1017 30.03 846 24.98 6.7 44.1 77 3 37.3 7.11 0.28
23:22 1017 30.03 846 24.98 6.7 44 78 3.1 37.5 7.08 0.279
23:23 1017 30.03 846 24.98 6.6 44 78 3 37.4 7.07 0.278
23:24 1017 30.03 846 24.98 6.6 43.9 78 3.1 37.5 7.07 0.278
23:25 1017 30.03 846 24.98 6.6 43.9 78 3 37.4 6.998 0.276
23:26 1017 30.03 846 24.98 6.6 43.8 78 3 37.5 6.998 0.276
23:27 1017 30.03 846 24.98 6.6 43.8 78 3 37.4 6.964 0.274
23:28 1017 30.03 846 24.98 6.5 43.7 78 3 37.4 6.97 0.274
23:29 1017 30.03 846 24.98 6.5 43.8 78 2.9 37.3 6.924 0.273
23:30 1017 30.03 846 24.98 6.6 43.8 78 3.1 37.5 6.958 0.274
23:31 1017 30.03 847 25.01 6.5 43.8 78 3 37.5 6.953 0.274
23:32 1017 30.03 846 24.98 6.6 43.8 78 3.1 37.6 6.919 0.272
23:33 1017 30.03 846 24.98 6.5 43.8 78 3 37.4 6.941 0.273
23:34 1017 30.03 846 24.98 6.6 43.8 78 3 37.5 6.953 0.274
23:35 1017 30.03 847 25.01 6.6 43.8 78 3 37.4 6.958 0.274
23:36 1017 30.03 847 25.01 6.5 43.8 78 3 37.3 6.953 0.274
23:37 1017 30.03 847 25.01 6.6 43.9 77 3 37.3 6.97 0.274
23:38 1017 30.03 847 25.01 6.6 43.9 78 3 37.4 6.97 0.274
23:39 1017 30.03 847 25.01 6.6 43.8 78 3.1 37.6 6.992 0.275
23:40 1017 30.03 847 25.01 6.6 43.9 78 3 37.5 6.975 0.275
23:41 1017 30.03 847 25.01 6.6 43.9 78 3.1 37.5 6.981 0.275
23:42 1017 30.03 847 25.01 6.6 43.9 78 3 37.3 6.983 0.275
23:43 1017 30.03 847 25.01 6.6 43.9 78 3 37.4 7.01 0.276
23:44 1017 30.03 847 25.01 6.6 43.9 78 3 37.5 6.983 0.275
23:45 1017 30.03 847 25.01 6.6 43.8 78 3 37.4 6.967 0.274
23:46 1017 30.03 847 25.01 6.6 43.8 78 3 37.4 6.967 0.274
23:47 1017 30.03 847 25.01 6.6 43.8 77 2.9 37.2 6.984 0.275
23:48 1017 30.03 847 25.01 6.6 43.9 78 3.1 37.5 6.951 0.274
23:49 1017 30.03 847 25.01 6.6 43.9 78 3 37.4 6.985 0.275
23:50 1017 30.03 847 25.01 6.6 43.8 78 2.9 37.3 6.985 0.275
23:51 1017 30.03 847 25.01 6.6 43.9 78 3 37.4 6.997 0.275
23:52 1017 30.03 847 25.01 6.6 43.9 78 3 37.4 6.98 0.275
23:53 1017 30.03 847 25.01 6.6 43.9 78 3 37.4 6.975 0.275
23:54 1017 30.03 847 25.01 6.6 43.9 78 3 37.4 6.977 0.275
23:55 1017 30.03 847 25.01 6.6 43.8 78 3 37.4 6.971 0.274
23:56 1017 30.03 847 25.01 6.6 43.9 78 3 37.4 6.972 0.274
23:57 1017 30.03 847 25.01 6.5 43.8 78 3 37.4 6.939 0.273
23:58 1017 30.03 847 25.01 6.5 43.8 78 2.9 37.3 6.956 0.274
23:59 1017 30.03 847 25.01 6.6 43.8 78 2.9 37.3 6.962 0.274
24:00 1017 30.03 847 25.01 6.6 43.8 79 3.1 37.6 6.957 0.274